Wetterdaten: Freitag, 19.09.2014
Datum Zeit Temp. Aussen +5cm Feuchte Auss Luftdruck Regen Sonnenschein Regendauer Solar Windben
19.09.2014 00:00 17,3 C 16,1 C 97 % 1010,7 hPa 0,2 l/m 0 min 2 min 0 W/m 4,2 km/h (1 Bft)
19.09.2014 00:02 17,3 C 16,1 C 97 % 1010,7 hPa 0,0 l/m 0 min 2 min 0 W/m 6,3 km/h (2 Bft)
19.09.2014 00:05 17,3 C 16,1 C 97 % 1010,5 hPa 0,6 l/m 0 min 2 min 0 W/m 8,4 km/h (2 Bft)
19.09.2014 00:06 17,3 C 16,1 C 97 % 1010,5 hPa 0,0 l/m 0 min 1 min 0 W/m 6,3 km/h (2 Bft)
19.09.2014 00:08 17,3 C 16,1 C 98 % 1010,6 hPa 0,0 l/m 0 min 2 min 0 W/m 6,3 km/h (2 Bft)
19.09.2014 00:10 17,3 C 16,1 C 98 % 1010,6 hPa 0,0 l/m 0 min 2 min 0 W/m 6,3 km/h (2 Bft)
19.09.2014 00:12 17,3 C 16,1 C 98 % 1010,6 hPa 0,0 l/m 0 min 0 min 0 W/m 4,2 km/h (1 Bft)
19.09.2014 00:14 17,3 C 16,1 C 98 % 1010,6 hPa 0,2 l/m 0 min 2 min 0 W/m 4,2 km/h (1 Bft)
19.09.2014 00:16 17,4 C 16,1 C 98 % 1010,5 hPa 0,0 l/m 0 min 2 min 0 W/m 10,5 km/h (2 Bft)
19.09.2014 00:18 17,4 C 16,1 C 98 % 1010,5 hPa 0,0 l/m 0 min 2 min 0 W/m 6,3 km/h (2 Bft)
19.09.2014 00:20 17,4 C 16,1 C 98 % 1010,5 hPa 0,0 l/m 0 min 2 min 0 W/m 6,3 km/h (2 Bft)
19.09.2014 00:22 17,3 C 16,1 C 98 % 1010,4 hPa 0,0 l/m 0 min 2 min 0 W/m 10,5 km/h (2 Bft)
19.09.2014 00:24 17,3 C 16,1 C 98 % 1010,3 hPa 0,2 l/m 0 min 2 min 0 W/m 10,5 km/h (2 Bft)
19.09.2014 00:26 17,3 C 16,1 C 98 % 1010,2 hPa 0,0 l/m 0 min 2 min 0 W/m 10,5 km/h (2 Bft)
19.09.2014 00:28 17,4 C 16,1 C 98 % 1010,2 hPa 0,0 l/m 0 min 2 min 0 W/m 12,6 km/h (3 Bft)
19.09.2014 00:30 17,4 C 16,1 C 98 % 1010,1 hPa 0,2 l/m 0 min 2 min 0 W/m 12,6 km/h (3 Bft)
19.09.2014 00:32 17,3 C 16,1 C 98 % 1010,0 hPa 0,0 l/m 0 min 2 min 0 W/m 14,6 km/h (3 Bft)
19.09.2014 00:34 17,3 C 16,1 C 98 % 1010,0 hPa 0,0 l/m 0 min 2 min 0 W/m 14,6 km/h (3 Bft)
19.09.2014 00:36 17,3 C 16,1 C 98 % 1009,9 hPa 0,0 l/m 0 min 2 min 0 W/m 12,6 km/h (3 Bft)
19.09.2014 00:38 17,3 C 16,1 C 98 % 1009,9 hPa 0,0 l/m 0 min 2 min 0 W/m 8,4 km/h (2 Bft)
19.09.2014 00:40 17,3 C 16,1 C 98 % 1010,0 hPa 0,0 l/m 0 min 0 min 0 W/m 16,7 km/h (3 Bft)
19.09.2014 00:42 17,3 C 16,1 C 98 % 1010,0 hPa 0,0 l/m 0 min 0 min 0 W/m 14,6 km/h (3 Bft)
19.09.2014 00:44 17,3 C 16,1 C 98 % 1010,0 hPa 0,0 l/m 0 min 0 min 0 W/m 14,6 km/h (3 Bft)
19.09.2014 00:46 17,3 C 16,1 C 98 % 1009,9 hPa 0,0 l/m 0 min 0 min 0 W/m 20,9 km/h (4 Bft)
19.09.2014 00:48 17,3 C 15,6 C 98 % 1009,9 hPa 0,0 l/m 0 min 0 min 0 W/m 18,8 km/h (3 Bft)
19.09.2014 00:50 17,3 C 16,1 C 98 % 1009,9 hPa 0,0 l/m 0 min 0 min 0 W/m 16,7 km/h (3 Bft)
19.09.2014 00:52 17,3 C 15,6 C 98 % 1010,0 hPa 0,0 l/m 0 min 0 min 0 W/m 12,6 km/h (3 Bft)
19.09.2014 00:54 17,3 C 15,6 C 98 % 1009,9 hPa 0,0 l/m 0 min 0 min 0 W/m 14,6 km/h (3 Bft)
19.09.2014 00:56 17,3 C 15,6 C 98 % 1010,0 hPa 0,0 l/m 0 min 0 min 0 W/m 16,7 km/h (3 Bft)
19.09.2014 00:58 17,3 C 15,6 C 98 % 1010,0 hPa 0,0 l/m 0 min 0 min 0 W/m 14,6 km/h (3 Bft)
19.09.2014 01:00 17,3 C 15,6 C 98 % 1010,0 hPa 0,0 l/m 0 min 0 min 0 W/m 18,8 km/h (3 Bft)
19.09.2014 01:02 17,2 C 15,6 C 98 % 1010,0 hPa 0,0 l/m 0 min 0 min 0 W/m 18,8 km/h (3 Bft)
19.09.2014 01:04 17,2 C 15,6 C 98 % 1010,0 hPa 0,0 l/m 0 min 0 min 0 W/m 18,8 km/h (3 Bft)
19.09.2014 01:06 17,2 C 15,6 C 98 % 1010,0 hPa 0,0 l/m 0 min 0 min 0 W/m 14,6 km/h (3 Bft)
19.09.2014 01:08 17,2 C 15,6 C 98 % 1010,1 hPa 0,0 l/m 0 min 0 min 0 W/m 8,4 km/h (2 Bft)
19.09.2014 01:10 17,2 C 15,6 C 98 % 1010,1 hPa 0,0 l/m 0 min 0 min 0 W/m 14,6 km/h (3 Bft)
19.09.2014 01:12 17,2 C 15,6 C 98 % 1010,1 hPa 0,0 l/m 0 min 0 min 0 W/m 14,6 km/h (3 Bft)
19.09.2014 01:14 17,2 C 15,6 C 98 % 1010,1 hPa 0,0 l/m 0 min 0 min 0 W/m 14,6 km/h (3 Bft)
19.09.2014 01:16 17,2 C 15,6 C 98 % 1010,1 hPa 0,0 l/m 0 min 0 min 0 W/m 14,6 km/h (3 Bft)
19.09.2014 01:18 17,2 C 15,6 C 98 % 1010,0 hPa 0,0 l/m 0 min 0 min 0 W/m 16,7 km/h (3 Bft)
19.09.2014 01:20 17,2 C 15,6 C 98 % 1010,0 hPa 0,0 l/m 0 min 0 min 0 W/m 14,6 km/h (3 Bft)
19.09.2014 01:22 17,2 C 15,6 C 98 % 1010,1 hPa 0,0 l/m 0 min 0 min 0 W/m 16,7 km/h (3 Bft)
19.09.2014 01:24 17,2 C 15,6 C 98 % 1010,1 hPa 0,0 l/m 0 min 0 min 0 W/m 12,6 km/h (3 Bft)
19.09.2014 01:26 17,2 C 15,6 C 98 % 1010,1 hPa 0,0 l/m 0 min 0 min 0 W/m 18,8 km/h (3 Bft)
19.09.2014 01:28 17,2 C 15,6 C 98 % 1010,1 hPa 0,0 l/m 0 min 0 min 0 W/m 10,5 km/h (2 Bft)
19.09.2014 01:30 17,2 C 15,6 C 98 % 1010,1 hPa 0,0 l/m 0 min 0 min 0 W/m 10,5 km/h (2 Bft)
19.09.2014 01:32 17,2 C 15,6 C 98 % 1010,1 hPa 0,0 l/m 0 min 0 min 0 W/m 14,6 km/h (3 Bft)
19.09.2014 01:34 17,2 C 15,6 C 98 % 1010,1 hPa 0,0 l/m 0 min 0 min 0 W/m 12,6 km/h (3 Bft)
19.09.2014 01:36 17,2 C 15,6 C 98 % 1010,1 hPa 0,0 l/m 0 min 0 min 0 W/m 16,7 km/h (3 Bft)
19.09.2014 01:38 17,1 C 15,6 C 98 % 1010,1 hPa 0,0 l/m 0 min 0 min 0 W/m 12,6 km/h (3 Bft)
19.09.2014 01:40 17,1 C 15,6 C 98 % 1010,1 hPa 0,0 l/m 0 min 0 min 0 W/m 8,4 km/h (2 Bft)
19.09.2014 01:42 17,1 C 15,6 C 98 % 1010,1 hPa 0,0 l/m 0 min 0 min 0 W/m 6,3 km/h (2 Bft)
19.09.2014 01:44 17,1 C 15,6 C 98 % 1010,0 hPa 0,0 l/m 0 min 0 min 0 W/m 8,4 km/h (2 Bft)
19.09.2014 01:46 17,1 C 15,6 C 98 % 1010,0 hPa 0,0 l/m 0 min 0 min 0 W/m 10,5 km/h (2 Bft)
19.09.2014 01:48 17,1 C 15,6 C 98 % 1010,0 hPa 0,0 l/m 0 min 0 min 0 W/m 8,4 km/h (2 Bft)
19.09.2014 01:50 17,1 C 15,6 C 98 % 1010,1 hPa 0,0 l/m 0 min 0 min 0 W/m 10,5 km/h (2 Bft)
19.09.2014 01:52 17,1 C 15,6 C 98 % 1010,1 hPa 0,0 l/m 0 min 0 min 0 W/m 10,5 km/h (2 Bft)
19.09.2014 01:54 17,1 C 15,6 C 98 % 1010,1 hPa 0,0 l/m 0 min 0 min 0 W/m 6,3 km/h (2 Bft)
19.09.2014 01:56 17,1 C 15,6 C 98 % 1010,1 hPa 0,0 l/m 0 min 0 min 0 W/m 8,4 km/h (2 Bft)
19.09.2014 01:58 17,1 C 15,6 C 98 % 1010,0 hPa 0,0 l/m 0 min 0 min 0 W/m 8,4 km/h (2 Bft)
19.09.2014 02:00 17,1 C 15,6 C 98 % 1010,0 hPa 0,0 l/m 0 min 0 min 0 W/m 6,3 km/h (2 Bft)
19.09.2014 02:02 17,1 C 15,6 C 98 % 1010,0 hPa 0,0 l/m 0 min 0 min 0 W/m 6,3 km/h (2 Bft)
19.09.2014 02:04 17,1 C 15,6 C 98 % 1010,0 hPa 0,0 l/m 0 min 0 min 0 W/m 8,4 km/h (2 Bft)
19.09.2014 02:06 17,0 C 15,6 C 98 % 1010,0 hPa 0,0 l/m 0 min 0 min 0 W/m 6,3 km/h (2 Bft)
19.09.2014 02:08 17,0 C 15,6 C 98 % 1010,0 hPa 0,0 l/m 0 min 0 min 0 W/m 6,3 km/h (2 Bft)
19.09.2014 02:10 17,0 C 15,6 C 98 % 1010,0 hPa 0,0 l/m 0 min 0 min 0 W/m 6,3 km/h (2 Bft)
19.09.2014 02:12 16,9 C 15,0 C 98 % 1010,0 hPa 0,0 l/m 0 min 0 min 0 W/m 4,2 km/h (1 Bft)
19.09.2014 02:14 16,9 C 15,0 C 98 % 1009,9 hPa 0,0 l/m 0 min 0 min 0 W/m 4,2 km/h (1 Bft)
19.09.2014 02:16 16,9 C 15,0 C 98 % 1009,9 hPa 0,0 l/m 0 min 0 min 0 W/m 6,3 km/h (2 Bft)
19.09.2014 02:18 16,9 C 15,0 C 98 % 1009,9 hPa 0,0 l/m 0 min 0 min 0 W/m 4,2 km/h (1 Bft)
19.09.2014 02:20 16,9 C 15,0 C 98 % 1010,0 hPa 0,0 l/m 0 min 0 min 0 W/m 6,3 km/h (2 Bft)
19.09.2014 02:22 16,9 C 15,0 C 98 % 1009,9 hPa 0,0 l/m 0 min 0 min 0 W/m 6,3 km/h (2 Bft)
19.09.2014 02:24 16,9 C 15,0 C 98 % 1009,9 hPa 0,0 l/m 0 min 0 min 0 W/m 6,3 km/h (2 Bft)
19.09.2014 02:26 16,8 C 15,0 C 98 % 1009,9 hPa 0,0 l/m 0 min 0 min 0 W/m 6,3 km/h (2 Bft)
19.09.2014 02:28 16,8 C 15,0 C 98 % 1009,9 hPa 0,0 l/m 0 min 0 min 0 W/m 6,3 km/h (2 Bft)
19.09.2014 02:30 16,8 C 15,0 C 98 % 1009,8 hPa 0,0 l/m 0 min 0 min 0 W/m 8,4 km/h (2 Bft)
19.09.2014 02:32 16,8 C 15,0 C 98 % 1009,9 hPa 0,0 l/m 0 min 0 min 0 W/m 10,5 km/h (2 Bft)
19.09.2014 02:34 16,8 C 15,0 C 98 % 1009,8 hPa 0,0 l/m 0 min 0 min 0 W/m 6,3 km/h (2 Bft)
19.09.2014 02:36 16,8 C 15,0 C 98 % 1009,8 hPa 0,0 l/m 0 min 0 min 0 W/m 6,3 km/h (2 Bft)
19.09.2014 02:38 16,7 C 15,0 C 98 % 1009,8 hPa 0,0 l/m 0 min 0 min 0 W/m 6,3 km/h (2 Bft)
19.09.2014 02:40 16,7 C 15,0 C 98 % 1009,8 hPa 0,0 l/m 0 min 0 min 0 W/m 6,3 km/h (2 Bft)
19.09.2014 02:42 16,7 C 15,0 C 98 % 1009,7 hPa 0,0 l/m 0 min 0 min 0 W/m 6,3 km/h (2 Bft)
19.09.2014 02:44 16,7 C 15,0 C 98 % 1009,8 hPa 0,0 l/m 0 min 0 min 0 W/m 6,3 km/h (2 Bft)
19.09.2014 02:46 16,7 C 15,0 C 98 % 1009,8 hPa 0,0 l/m 0 min 0 min 0 W/m 4,2 km/h (1 Bft)
19.09.2014 02:48 16,7 C 15,0 C 98 % 1009,7 hPa 0,0 l/m 0 min 0 min 0 W/m 6,3 km/h (2 Bft)
19.09.2014 02:50 16,7 C 15,0 C 98 % 1009,7 hPa 0,0 l/m 0 min 0 min 0 W/m 6,3 km/h (2 Bft)
19.09.2014 02:52 16,7 C 15,0 C 98 % 1009,7 hPa 0,0 l/m 0 min 0 min 0 W/m 6,3 km/h (2 Bft)
19.09.2014 02:54 16,6 C 15,0 C 98 % 1009,8 hPa 0,0 l/m 0 min 0 min 0 W/m 8,4 km/h (2 Bft)
19.09.2014 02:56 16,6 C 15,0 C 98 % 1009,8 hPa 0,0 l/m 0 min 0 min 0 W/m 8,4 km/h (2 Bft)
19.09.2014 02:58 16,6 C 15,0 C 98 % 1009,7 hPa 0,0 l/m 0 min 0 min 0 W/m 6,3 km/h (2 Bft)
19.09.2014 03:00 16,6 C 15,0 C 98 % 1009,7 hPa 0,0 l/m 0 min 0 min 0 W/m 10,5 km/h (2 Bft)
19.09.2014 03:02 16,6 C 15,0 C 98 % 1009,7 hPa 0,0 l/m 0 min 0 min 0 W/m 8,4 km/h (2 Bft)
19.09.2014 03:04 16,6 C 15,0 C 98 % 1009,7 hPa 0,0 l/m 0 min 0 min 0 W/m 8,4 km/h (2 Bft)
19.09.2014 03:06 16,6 C 15,0 C 98 % 1009,7 hPa 0,0 l/m 0 min 0 min 0 W/m 8,4 km/h (2 Bft)
19.09.2014 03:08 16,6 C 15,0 C 98 % 1009,7 hPa 0,0 l/m 0 min 0 min 0 W/m 6,3 km/h (2 Bft)
19.09.2014 03:10 16,6 C 15,0 C 98 % 1009,7 hPa 0,0 l/m 0 min 0 min 0 W/m 8,4 km/h (2 Bft)
19.09.2014 03:12 16,6 C 15,0 C 98 % 1009,6 hPa 0,0 l/m 0 min 0 min 0 W/m 10,5 km/h (2 Bft)
19.09.2014 03:14 16,6 C 15,0 C 98 % 1009,6 hPa 0,0 l/m 0 min 0 min 0 W/m 8,4 km/h (2 Bft)
19.09.2014 03:16 16,6 C 15,0 C 98 % 1009,6 hPa 0,0 l/m 0 min 0 min 0 W/m 8,4 km/h (2 Bft)
19.09.2014 03:18 16,6 C 15,0 C 98 % 1009,7 hPa 0,0 l/m 0 min 0 min 0 W/m 6,3 km/h (2 Bft)
19.09.2014 03:20 16,5 C 15,0 C 98 % 1009,6 hPa 0,0 l/m 0 min 0 min 0 W/m 4,2 km/h (1 Bft)
19.09.2014 03:22 16,5 C 15,0 C 98 % 1009,7 hPa 0,0 l/m 0 min 0 min 0 W/m 4,2 km/h (1 Bft)
19.09.2014 03:24 16,5 C 15,0 C 98 % 1009,7 hPa 0,0 l/m 0 min 0 min 0 W/m 4,2 km/h (1 Bft)
19.09.2014 03:26 16,5 C 15,0 C 98 % 1009,7 hPa 0,0 l/m 0 min 0 min 0 W/m 4,2 km/h (1 Bft)
19.09.2014 03:28 16,5 C 15,0 C 98 % 1009,6 hPa 0,0 l/m 0 min 0 min 0 W/m 4,2 km/h (1 Bft)
19.09.2014 03:30 16,5 C 15,0 C 98 % 1009,6 hPa 0,0 l/m 0 min 0 min 0 W/m 2,1 km/h (1 Bft)
19.09.2014 03:32 16,5 C 15,0 C 98 % 1009,5 hPa 0,0 l/m 0 min 0 min 0 W/m 4,2 km/h (1 Bft)
19.09.2014 03:34 16,4 C 15,0 C 98 % 1009,6 hPa 0,0 l/m 0 min 0 min 0 W/m 6,3 km/h (2 Bft)
19.09.2014 03:36 16,4 C 15,0 C 98 % 1009,5 hPa 0,0 l/m 0 min 0 min 0 W/m 4,2 km/h (1 Bft)
19.09.2014 03:38 16,4 C 14,4 C 98 % 1009,5 hPa 0,0 l/m 0 min 0 min 0 W/m 4,2 km/h (1 Bft)
19.09.2014 03:40 16,4 C 14,4 C 99 % 1009,5 hPa 0,0 l/m 0 min 0 min 0 W/m 6,3 km/h (2 Bft)
19.09.2014 03:42 16,4 C 14,4 C 99 % 1009,5 hPa 0,0 l/m 0 min 0 min 0 W/m 4,2 km/h (1 Bft)
19.09.2014 03:44 16,4 C 15,0 C 99 % 1009,5 hPa 0,0 l/m 0 min 0 min 0 W/m 6,3 km/h (2 Bft)
19.09.2014 03:46 16,4 C 15,0 C 99 % 1009,6 hPa 0,0 l/m 0 min 0 min 0 W/m 8,4 km/h (2 Bft)
19.09.2014 03:48 16,4 C 15,0 C 99 % 1009,5 hPa 0,0 l/m 0 min 0 min 0 W/m 8,4 km/h (2 Bft)
19.09.2014 03:50 16,4 C 15,0 C 99 % 1009,5 hPa 0,0 l/m 0 min 0 min 0 W/m 8,4 km/h (2 Bft)
19.09.2014 03:52 16,4 C 15,0 C 99 % 1009,5 hPa 0,0 l/m 0 min 0 min 0 W/m 4,2 km/h (1 Bft)
19.09.2014 03:54 16,4 C 15,0 C 99 % 1009,5 hPa 0,0 l/m 0 min 0 min 0 W/m 6,3 km/h (2 Bft)
19.09.2014 03:56 16,4 C 15,0 C 99 % 1009,6 hPa 0,0 l/m 0 min 0 min 0 W/m 4,2 km/h (1 Bft)
19.09.2014 03:58 16,4 C 15,0 C 99 % 1009,5 hPa 0,0 l/m 0 min 0 min 0 W/m 4,2 km/h (1 Bft)
19.09.2014 04:00 16,4 C 15,0 C 99 % 1009,5 hPa 0,0 l/m 0 min 0 min 0 W/m 6,3 km/h (2 Bft)
19.09.2014 04:02 16,3 C 15,0 C 99 % 1009,5 hPa 0,0 l/m 0 min 0 min 0 W/m 4,2 km/h (1 Bft)
19.09.2014 04:04 16,3 C 14,4 C 99 % 1009,5 hPa 0,0 l/m 0 min 0 min 0 W/m 4,2 km/h (1 Bft)
19.09.2014 04:06 16,3 C 14,4 C 99 % 1009,7 hPa 0,0 l/m 0 min 0 min 0 W/m 6,3 km/h (2 Bft)
19.09.2014 04:08 16,3 C 14,4 C 98 % 1009,5 hPa 0,0 l/m 0 min 0 min 0 W/m 6,3 km/h (2 Bft)
19.09.2014 04:10 16,3 C 14,4 C 98 % 1009,6 hPa 0,0 l/m 0 min 0 min 0 W/m 4,2 km/h (1 Bft)
19.09.2014 04:12 16,3 C 15,0 C 98 % 1009,6 hPa 0,0 l/m 0 min 0 min 0 W/m 6,3 km/h (2 Bft)
19.09.2014 04:14 16,3 C 15,0 C 98 % 1009,7 hPa 0,0 l/m 0 min 0 min 0 W/m 6,3 km/h (2 Bft)
19.09.2014 04:16 16,3 C 15,0 C 98 % 1009,6 hPa 0,0 l/m 0 min 0 min 0 W/m 6,3 km/h (2 Bft)
19.09.2014 04:18 16,3 C 14,4 C 98 % 1009,6 hPa 0,0 l/m 0 min 0 min 0 W/m 8,4 km/h (2 Bft)
19.09.2014 04:20 16,3 C 14,4 C 98 % 1009,6 hPa 0,0 l/m 0 min 0 min 0 W/m 6,3 km/h (2 Bft)
19.09.2014 04:22 16,3 C 14,4 C 98 % 1009,5 hPa 0,0 l/m 0 min 0 min 0 W/m 6,3 km/h (2 Bft)
19.09.2014 04:24 16,3 C 15,0 C 98 % 1009,5 hPa 0,0 l/m 0 min 0 min 0 W/m 6,3 km/h (2 Bft)
19.09.2014 04:26 16,3 C 15,0 C 98 % 1009,5 hPa 0,0 l/m 0 min 0 min 0 W/m 6,3 km/h (2 Bft)
19.09.2014 04:28 16,3 C 15,0 C 98 % 1009,6 hPa 0,0 l/m 0 min 0 min 0 W/m 6,3 km/h (2 Bft)
19.09.2014 04:30 16,3 C 15,0 C 98 % 1009,5 hPa 0,0 l/m 0 min 0 min 0 W/m 6,3 km/h (2 Bft)
19.09.2014 04:32 16,3 C 15,0 C 98 % 1009,5 hPa 0,0 l/m 0 min 0 min 0 W/m 8,4 km/h (2 Bft)
19.09.2014 04:34 16,3 C 15,0 C 98 % 1009,5 hPa 0,0 l/m 0 min 0 min 0 W/m 6,3 km/h (2 Bft)
19.09.2014 04:36 16,3 C 15,0 C 98 % 1009,4 hPa 0,0 l/m 0 min 0 min 0 W/m 6,3 km/h (2 Bft)
19.09.2014 04:38 16,3 C 15,0 C 98 % 1009,4 hPa 0,0 l/m 0 min 0 min 0 W/m 8,4 km/h (2 Bft)
19.09.2014 04:40 16,3 C 15,0 C 98 % 1009,4 hPa 0,0 l/m 0 min 0 min 0 W/m 8,4 km/h (2 Bft)
19.09.2014 04:42 16,3 C 15,0 C 99 % 1009,4 hPa 0,0 l/m 0 min 0 min 0 W/m 6,3 km/h (2 Bft)
19.09.2014 04:44 16,3 C 15,0 C 99 % 1009,4 hPa 0,0 l/m 0 min 0 min 0 W/m 6,3 km/h (2 Bft)
19.09.2014 04:46 16,3 C 15,0 C 99 % 1009,5 hPa 0,0 l/m 0 min 0 min 0 W/m 6,3 km/h (2 Bft)
19.09.2014 04:48 16,3 C 15,0 C 99 % 1009,5 hPa 0,0 l/m 0 min 0 min 0 W/m 4,2 km/h (1 Bft)
19.09.2014 04:50 16,3 C 15,0 C 99 % 1009,4 hPa 0,0 l/m 0 min 0 min 0 W/m 6,3 km/h (2 Bft)
19.09.2014 04:52 16,3 C 15,0 C 99 % 1009,4 hPa 0,0 l/m 0 min 0 min 0 W/m 8,4 km/h (2 Bft)
19.09.2014 04:54 16,3 C 15,0 C 99 % 1009,4 hPa 0,0 l/m 0 min 0 min 0 W/m 6,3 km/h (2 Bft)
19.09.2014 04:56 16,3 C 15,0 C 99 % 1009,4 hPa 0,0 l/m 0 min 0 min 0 W/m 6,3 km/h (2 Bft)
19.09.2014 04:58 16,3 C 15,0 C 99 % 1009,4 hPa 0,0 l/m 0 min 0 min 0 W/m 8,4 km/h (2 Bft)
19.09.2014 05:00 16,3 C 15,0 C 99 % 1009,4 hPa 0,0 l/m 0 min 0 min 0 W/m 10,5 km/h (2 Bft)
19.09.2014 05:02 16,3 C 15,0 C 99 % 1009,5 hPa 0,0 l/m 0 min 0 min 0 W/m 8,4 km/h (2 Bft)
19.09.2014 05:04 16,3 C 14,4 C 99 % 1009,6 hPa 0,0 l/m 0 min 0 min 0 W/m 8,4 km/h (2 Bft)
19.09.2014 05:06 16,3 C 14,4 C 99 % 1009,5 hPa 0,0 l/m 0 min 0 min 0 W/m 6,3 km/h (2 Bft)
19.09.2014 05:08 16,3 C 14,4 C 99 % 1009,6 hPa 0,0 l/m 0 min 0 min 0 W/m 6,3 km/h (2 Bft)
19.09.2014 05:10 16,3 C 14,4 C 99 % 1009,6 hPa 0,0 l/m 0 min 0 min 0 W/m 8,4 km/h (2 Bft)
19.09.2014 05:12 16,2 C 14,4 C 99 % 1009,7 hPa 0,0 l/m 0 min 0 min 0 W/m 12,6 km/h (3 Bft)
19.09.2014 05:14 16,2 C 14,4 C 99 % 1009,7 hPa 0,0 l/m 0 min 0 min 0 W/m 10,5 km/h (2 Bft)
19.09.2014 05:16 16,2 C 15,0 C 99 % 1009,6 hPa 0,0 l/m 0 min 0 min 0 W/m 8,4 km/h (2 Bft)
19.09.2014 05:18 16,2 C 15,0 C 99 % 1009,7 hPa 0,0 l/m 0 min 0 min 0 W/m 8,4 km/h (2 Bft)
19.09.2014 05:20 16,2 C 15,0 C 99 % 1009,5 hPa 0,0 l/m 0 min 0 min 0 W/m 6,3 km/h (2 Bft)
19.09.2014 05:22 16,2 C 15,0 C 99 % 1009,6 hPa 0,0 l/m 0 min 0 min 0 W/m 8,4 km/h (2 Bft)
19.09.2014 05:24 16,2 C 15,0 C 99 % 1009,6 hPa 0,0 l/m 0 min 0 min 0 W/m 8,4 km/h (2 Bft)
19.09.2014 05:26 16,2 C 15,0 C 99 % 1009,6 hPa 0,0 l/m 0 min 0 min 0 W/m 10,5 km/h (2 Bft)
19.09.2014 05:28 16,2 C 14,4 C 99 % 1009,7 hPa 0,0 l/m 0 min 0 min 0 W/m 10,5 km/h (2 Bft)
19.09.2014 05:30 16,2 C 14,4 C 99 % 1009,6 hPa 0,0 l/m 0 min 0 min 0 W/m 10,5 km/h (2 Bft)
19.09.2014 05:32 16,2 C 14,4 C 99 % 1009,5 hPa 0,0 l/m 0 min 0 min 0 W/m 10,5 km/h (2 Bft)
19.09.2014 05:34 16,2 C 14,4 C 99 % 1009,4 hPa 0,0 l/m 0 min 0 min 0 W/m 8,4 km/h (2 Bft)
19.09.2014 05:36 16,2 C 14,4 C 99 % 1009,5 hPa 0,0 l/m 0 min 0 min 0 W/m 8,4 km/h (2 Bft)
19.09.2014 05:38 16,2 C 14,4 C 99 % 1009,5 hPa 0,0 l/m 0 min 0 min 0 W/m 12,6 km/h (3 Bft)
19.09.2014 05:40 16,2 C 14,4 C 99 % 1009,5 hPa 0,2 l/m 0 min 0 min 0 W/m 10,5 km/h (2 Bft)
19.09.2014 05:42 16,1 C 14,4 C 99 % 1009,5 hPa 0,0 l/m 0 min 0 min 0 W/m 10,5 km/h (2 Bft)
19.09.2014 05:44 16,1 C 14,4 C 99 % 1009,5 hPa 0,0 l/m 0 min 0 min 0 W/m 8,4 km/h (2 Bft)
19.09.2014 05:46 16,1 C 14,4 C 99 % 1009,4 hPa 0,0 l/m 0 min 0 min 0 W/m 8,4 km/h (2 Bft)
19.09.2014 05:48 16,1 C 14,4 C 99 % 1009,5 hPa 0,0 l/m 0 min 0 min 0 W/m 8,4 km/h (2 Bft)
19.09.2014 05:50 16,1 C 14,4 C 99 % 1009,5 hPa 0,0 l/m 0 min 0 min 0 W/m 8,4 km/h (2 Bft)
19.09.2014 05:52 16,1 C 14,4 C 99 % 1009,4 hPa 0,0 l/m 0 min 0 min 0 W/m 8,4 km/h (2 Bft)
19.09.2014 05:54 16,1 C 14,4 C 99 % 1009,5 hPa 0,0 l/m 0 min 0 min 0 W/m 6,3 km/h (2 Bft)
19.09.2014 05:56 16,1 C 14,4 C 99 % 1009,4 hPa 0,0 l/m 0 min 0 min 0 W/m 6,3 km/h (2 Bft)
19.09.2014 05:58 16,1 C 14,4 C 99 % 1009,5 hPa 0,0 l/m 0 min 0 min 0 W/m 4,2 km/h (1 Bft)
19.09.2014 06:00 16,1 C 14,4 C 99 % 1009,5 hPa 0,0 l/m 0 min 0 min 0 W/m 6,3 km/h (2 Bft)
19.09.2014 06:02 16,0 C 14,4 C 99 % 1009,4 hPa 0,0 l/m 0 min 0 min 0 W/m 6,3 km/h (2 Bft)
19.09.2014 06:06 16,0 C 14,4 C 99 % 1009,4 hPa 0,0 l/m 0 min 0 min 0 W/m 8,4 km/h (2 Bft)
19.09.2014 06:08 15,9 C 14,4 C 99 % 1009,5 hPa 0,0 l/m 0 min 0 min 0 W/m 8,4 km/h (2 Bft)
19.09.2014 06:10 15,9 C 14,4 C 99 % 1009,5 hPa 0,0 l/m 0 min 0 min 0 W/m 6,3 km/h (2 Bft)
19.09.2014 06:12 15,9 C 14,4 C 99 % 1009,5 hPa 0,0 l/m 0 min 0 min 0 W/m 8,4 km/h (2 Bft)
19.09.2014 06:14 15,9 C 14,4 C 99 % 1009,5 hPa 0,0 l/m 0 min 0 min 0 W/m 6,3 km/h (2 Bft)
19.09.2014 06:16 15,9 C 14,4 C 99 % 1009,6 hPa 0,0 l/m 0 min 0 min 0 W/m 6,3 km/h (2 Bft)
19.09.2014 06:18 15,9 C 14,4 C 99 % 1009,5 hPa 0,0 l/m 0 min 0 min 0 W/m 4,2 km/h (1 Bft)
19.09.2014 06:20 15,9 C 14,4 C 99 % 1009,6 hPa 0,0 l/m 0 min 0 min 0 W/m 4,2 km/h (1 Bft)
19.09.2014 06:22 15,8 C 14,4 C 99 % 1009,6 hPa 0,0 l/m 0 min 0 min 0 W/m 4,2 km/h (1 Bft)
19.09.2014 06:24 15,8 C 14,4 C 99 % 1009,6 hPa 0,0 l/m 0 min 0 min 0 W/m 4,2 km/h (1 Bft)
19.09.2014 06:26 15,8 C 14,4 C 99 % 1009,6 hPa 0,0 l/m 0 min 0 min 0 W/m 4,2 km/h (1 Bft)
19.09.2014 06:28 15,8 C 14,4 C 99 % 1009,6 hPa 0,0 l/m 0 min 0 min 0 W/m 4,2 km/h (1 Bft)
19.09.2014 06:30 15,8 C 13,9 C 99 % 1009,6 hPa 0,0 l/m 0 min 0 min 0 W/m 4,2 km/h (1 Bft)
19.09.2014 06:32 15,8 C 13,9 C 99 % 1009,6 hPa 0,0 l/m 0 min 0 min 0 W/m 6,3 km/h (2 Bft)
19.09.2014 06:34 15,7 C 13,9 C 99 % 1009,7 hPa 0,0 l/m 0 min 0 min 0 W/m 6,3 km/h (2 Bft)
19.09.2014 06:36 15,7 C 13,9 C 99 % 1009,6 hPa 0,0 l/m 0 min 0 min 0 W/m 6,3 km/h (2 Bft)
19.09.2014 06:38 15,7 C 13,9 C 99 % 1009,7 hPa 0,0 l/m 0 min 0 min 0 W/m 6,3 km/h (2 Bft)
19.09.2014 06:40 15,7 C 13,9 C 99 % 1009,7 hPa 0,0 l/m 0 min 0 min 0 W/m 4,2 km/h (1 Bft)
19.09.2014 06:42 15,7 C 13,9 C 99 % 1009,6 hPa 0,0 l/m 0 min 0 min 0 W/m 4,2 km/h (1 Bft)
19.09.2014 06:44 15,7 C 13,9 C 99 % 1009,7 hPa 0,0 l/m 0 min 0 min 0 W/m 4,2 km/h (1 Bft)
19.09.2014 06:46 15,7 C 13,9 C 99 % 1009,7 hPa 0,0 l/m 0 min 0 min 0 W/m 4,2 km/h (1 Bft)
19.09.2014 06:48 15,6 C 13,9 C 99 % 1009,7 hPa 0,0 l/m 0 min 0 min 0 W/m 4,2 km/h (1 Bft)
19.09.2014 06:50 15,6 C 13,9 C 99 % 1009,7 hPa 0,0 l/m 0 min 0 min 0 W/m 2,1 km/h (1 Bft)
19.09.2014 06:52 15,6 C 13,9 C 99 % 1009,7 hPa 0,0 l/m 0 min 0 min 0 W/m 2,1 km/h (1 Bft)
19.09.2014 06:54 15,6 C 13,9 C 99 % 1009,8 hPa 0,0 l/m 0 min 0 min 0 W/m 2,1 km/h (1 Bft)
19.09.2014 06:56 15,6 C 13,9 C 99 % 1009,8 hPa 0,0 l/m 0 min 0 min 0 W/m 4,2 km/h (1 Bft)
19.09.2014 06:58 15,6 C 13,9 C 99 % 1009,9 hPa 0,0 l/m 0 min 0 min 0 W/m 4,2 km/h (1 Bft)
19.09.2014 07:00 15,6 C 13,9 C 99 % 1009,9 hPa 0,0 l/m 0 min 0 min 0 W/m 2,1 km/h (1 Bft)
19.09.2014 07:02 15,6 C 13,9 C 99 % 1009,9 hPa 0,0 l/m 0 min 0 min 0 W/m 2,1 km/h (1 Bft)
19.09.2014 07:04 15,5 C 13,9 C 99 % 1009,8 hPa 0,0 l/m 0 min 0 min 0 W/m 2,1 km/h (1 Bft)
19.09.2014 07:06 15,5 C 13,9 C 99 % 1009,9 hPa 0,0 l/m 0 min 0 min 0 W/m 0,0 km/h (0 Bft)
19.09.2014 07:08 15,5 C 13,9 C 99 % 1009,9 hPa 0,0 l/m 0 min 0 min 1 W/m 2,1 km/h (1 Bft)
19.09.2014 07:10 15,4 C 13,9 C 99 % 1010,0 hPa 0,0 l/m 0 min 0 min 6 W/m 2,1 km/h (1 Bft)
19.09.2014 07:12 15,4 C 13,9 C 99 % 1010,0 hPa 0,0 l/m 0 min 0 min 7 W/m 2,1 km/h (1 Bft)
19.09.2014 07:14 15,4 C 13,3 C 99 % 1010,0 hPa 0,0 l/m 0 min 0 min 7 W/m 2,1 km/h (1 Bft)
19.09.2014 07:16 15,4 C 13,3 C 99 % 1010,0 hPa 0,0 l/m 0 min 0 min 7 W/m 0,0 km/h (0 Bft)
19.09.2014 07:18 15,4 C 13,3 C 99 % 1010,0 hPa 0,0 l/m 0 min 0 min 7 W/m 0,0 km/h (0 Bft)
19.09.2014 07:20 15,3 C 13,3 C 99 % 1010,0 hPa 0,0 l/m 0 min 0 min 7 W/m 2,1 km/h (1 Bft)
19.09.2014 07:22 15,3 C 13,3 C 99 % 1010,0 hPa 0,0 l/m 0 min 0 min 9 W/m 2,1 km/h (1 Bft)
19.09.2014 07:24 15,3 C 13,3 C 99 % 1010,0 hPa 0,0 l/m 0 min 0 min 11 W/m 2,1 km/h (1 Bft)
19.09.2014 07:26 15,3 C 13,3 C 99 % 1010,0 hPa 0,0 l/m 0 min 0 min 12 W/m 2,1 km/h (1 Bft)
19.09.2014 07:28 15,3 C 13,3 C 99 % 1010,1 hPa 0,0 l/m 2 min 0 min 15 W/m 2,1 km/h (1 Bft)
19.09.2014 07:30 15,2 C 13,3 C 99 % 1010,1 hPa 0,0 l/m 2 min 0 min 17 W/m 0,0 km/h (0 Bft)
19.09.2014 07:32 15,2 C 13,3 C 99 % 1010,1 hPa 0,0 l/m 2 min 0 min 19 W/m 2,1 km/h (1 Bft)
19.09.2014 07:34 15,2 C 13,3 C 99 % 1010,2 hPa 0,0 l/m 2 min 0 min 22 W/m 0,0 km/h (0 Bft)
19.09.2014 07:36 15,2 C 13,3 C 99 % 1010,2 hPa 0,0 l/m 2 min 0 min 25 W/m 0,0 km/h (0 Bft)
19.09.2014 07:38 15,2 C 13,3 C 99 % 1010,2 hPa 0,0 l/m 2 min 0 min 26 W/m 2,1 km/h (1 Bft)
19.09.2014 07:40 15,2 C 13,3 C 99 % 1010,3 hPa 0,0 l/m 0 min 0 min 26 W/m 2,1 km/h (1 Bft)
19.09.2014 07:42 15,2 C 13,3 C 99 % 1010,3 hPa 0,0 l/m 0 min 0 min 26 W/m 2,1 km/h (1 Bft)
19.09.2014 07:44 15,1 C 13,9 C 99 % 1010,3 hPa 0,0 l/m 0 min 0 min 28 W/m 2,1 km/h (1 Bft)
19.09.2014 07:46 15,1 C 13,9 C 99 % 1010,3 hPa 0,0 l/m 0 min 0 min 32 W/m 2,1 km/h (1 Bft)
19.09.2014 07:48 15,1 C 13,9 C 99 % 1010,3 hPa 0,0 l/m 0 min 0 min 33 W/m 2,1 km/h (1 Bft)
19.09.2014 07:50 15,1 C 13,9 C 99 % 1010,3 hPa 0,0 l/m 0 min 0 min 32 W/m 2,1 km/h (1 Bft)
19.09.2014 07:52 15,1 C 13,9 C 99 % 1010,3 hPa 0,0 l/m 0 min 0 min 31 W/m 2,1 km/h (1 Bft)
19.09.2014 07:54 15,1 C 13,9 C 99 % 1010,4 hPa 0,0 l/m 0 min 0 min 32 W/m 2,1 km/h (1 Bft)
19.09.2014 07:56 15,1 C 13,9 C 99 % 1010,3 hPa 0,0 l/m 0 min 0 min 33 W/m 4,2 km/h (1 Bft)
19.09.2014 07:58 15,1 C 13,9 C 99 % 1010,3 hPa 0,0 l/m 0 min 0 min 34 W/m 4,2 km/h (1 Bft)
19.09.2014 08:00 15,1 C 13,9 C 99 % 1010,4 hPa 0,0 l/m 0 min 0 min 35 W/m 4,2 km/h (1 Bft)
19.09.2014 08:02 15,1 C 13,9 C 99 % 1010,3 hPa 0,0 l/m 0 min 0 min 37 W/m 4,2 km/h (1 Bft)
19.09.2014 08:04 15,1 C 13,9 C 99 % 1010,3 hPa 0,0 l/m 0 min 0 min 39 W/m 4,2 km/h (1 Bft)
19.09.2014 08:06 15,1 C 13,9 C 99 % 1010,4 hPa 0,0 l/m 0 min 0 min 40 W/m 4,2 km/h (1 Bft)
19.09.2014 08:08 15,1 C 13,9 C 99 % 1010,4 hPa 0,0 l/m 0 min 0 min 41 W/m 2,1 km/h (1 Bft)
19.09.2014 08:10 15,1 C 13,9 C 99 % 1010,4 hPa 0,0 l/m 0 min 0 min 42 W/m 4,2 km/h (1 Bft)
19.09.2014 08:12 15,1 C 13,9 C 99 % 1010,4 hPa 0,0 l/m 0 min 0 min 43 W/m 4,2 km/h (1 Bft)
19.09.2014 08:14 15,1 C 13,9 C 99 % 1010,4 hPa 0,0 l/m 0 min 0 min 44 W/m 4,2 km/h (1 Bft)
19.09.2014 08:16 15,1 C 13,9 C 99 % 1010,4 hPa 0,0 l/m 0 min 0 min 46 W/m 4,2 km/h (1 Bft)
19.09.2014 08:18 15,1 C 13,9 C 99 % 1010,5 hPa 0,0 l/m 0 min 0 min 47 W/m 4,2 km/h (1 Bft)
19.09.2014 08:20 15,1 C 13,9 C 99 % 1010,5 hPa 0,0 l/m 0 min 0 min 53 W/m 4,2 km/h (1 Bft)
19.09.2014 08:22 15,2 C 14,4 C 99 % 1010,5 hPa 0,0 l/m 0 min 0 min 66 W/m 2,1 km/h (1 Bft)
19.09.2014 08:24 15,2 C 14,4 C 99 % 1010,5 hPa 0,0 l/m 2 min 0 min 90 W/m 6,3 km/h (2 Bft)
19.09.2014 08:26 15,2 C 14,4 C 99 % 1010,5 hPa 0,0 l/m 2 min 0 min 97 W/m 6,3 km/h (2 Bft)
19.09.2014 08:28 15,2 C 14,4 C 99 % 1010,6 hPa 0,0 l/m 2 min 0 min 99 W/m 6,3 km/h (2 Bft)
19.09.2014 08:30 15,2 C 14,4 C 99 % 1010,5 hPa 0,0 l/m 2 min 0 min 102 W/m 8,4 km/h (2 Bft)
19.09.2014 08:32 15,3 C 14,4 C 99 % 1010,6 hPa 0,0 l/m 2 min 0 min 105 W/m 8,4 km/h (2 Bft)
19.09.2014 08:34 15,3 C 14,4 C 99 % 1010,6 hPa 0,0 l/m 2 min 0 min 114 W/m 6,3 km/h (2 Bft)
19.09.2014 08:36 15,3 C 14,4 C 99 % 1010,7 hPa 0,0 l/m 2 min 0 min 119 W/m 6,3 km/h (2 Bft)
19.09.2014 08:38 15,4 C 14,4 C 99 % 1010,7 hPa 0,0 l/m 2 min 0 min 121 W/m 8,4 km/h (2 Bft)
19.09.2014 08:40 15,4 C 14,4 C 99 % 1010,7 hPa 0,0 l/m 2 min 0 min 121 W/m 10,5 km/h (2 Bft)
19.09.2014 08:42 15,4 C 14,4 C 99 % 1010,7 hPa 0,0 l/m 2 min 0 min 132 W/m 8,4 km/h (2 Bft)
19.09.2014 08:44 15,5 C 15,0 C 99 % 1010,7 hPa 0,0 l/m 2 min 0 min 139 W/m 6,3 km/h (2 Bft)
19.09.2014 08:46 15,6 C 15,0 C 99 % 1010,7 hPa 0,0 l/m 2 min 0 min 149 W/m 6,3 km/h (2 Bft)
19.09.2014 08:48 15,6 C 15,0 C 99 % 1010,7 hPa 0,0 l/m 2 min 0 min 162 W/m 6,3 km/h (2 Bft)
19.09.2014 08:50 15,7 C 15,0 C 99 % 1010,7 hPa 0,0 l/m 2 min 0 min 172 W/m 4,2 km/h (1 Bft)
19.09.2014 08:52 15,7 C 15,0 C 99 % 1010,7 hPa 0,0 l/m 2 min 0 min 188 W/m 2,1 km/h (1 Bft)
19.09.2014 08:54 15,7 C 15,0 C 99 % 1010,7 hPa 0,0 l/m 2 min 0 min 205 W/m 6,3 km/h (2 Bft)
19.09.2014 08:56 15,8 C 15,0 C 99 % 1010,8 hPa 0,0 l/m 2 min 0 min 218 W/m 4,2 km/h (1 Bft)
19.09.2014 08:58 15,8 C 15,0 C 99 % 1010,8 hPa 0,0 l/m 2 min 0 min 213 W/m 2,1 km/h (1 Bft)
19.09.2014 09:00 15,9 C 15,0 C 99 % 1010,8 hPa 0,0 l/m 2 min 0 min 208 W/m 4,2 km/h (1 Bft)
19.09.2014 09:02 15,9 C 15,0 C 99 % 1010,8 hPa 0,0 l/m 2 min 0 min 207 W/m 2,1 km/h (1 Bft)
19.09.2014 09:04 15,9 C 15,0 C 99 % 1010,8 hPa 0,0 l/m 2 min 0 min 192 W/m 6,3 km/h (2 Bft)
19.09.2014 09:06 16,0 C 15,0 C 99 % 1010,8 hPa 0,0 l/m 2 min 0 min 157 W/m 4,2 km/h (1 Bft)
19.09.2014 09:08 16,1 C 15,0 C 99 % 1010,9 hPa 0,0 l/m 2 min 0 min 145 W/m 2,1 km/h (1 Bft)
19.09.2014 09:10 16,1 C 15,6 C 99 % 1010,9 hPa 0,0 l/m 2 min 0 min 200 W/m 2,1 km/h (1 Bft)
19.09.2014 09:12 16,2 C 15,6 C 99 % 1010,9 hPa 0,0 l/m 2 min 0 min 216 W/m 2,1 km/h (1 Bft)
19.09.2014 09:14 16,2 C 15,6 C 99 % 1011,0 hPa 0,0 l/m 2 min 0 min 227 W/m 4,2 km/h (1 Bft)
19.09.2014 09:16 16,3 C 15,6 C 99 % 1011,1 hPa 0,0 l/m 2 min 0 min 255 W/m 4,2 km/h (1 Bft)
19.09.2014 09:18 16,3 C 15,6 C 99 % 1011,0 hPa 0,0 l/m 2 min 0 min 258 W/m 4,2 km/h (1 Bft)
19.09.2014 09:20 16,4 C 15,6 C 99 % 1011,1 hPa 0,0 l/m 2 min 0 min 244 W/m 6,3 km/h (2 Bft)
19.09.2014 09:22 16,5 C 16,1 C 99 % 1011,1 hPa 0,0 l/m 2 min 0 min 213 W/m 6,3 km/h (2 Bft)
19.09.2014 09:24 16,6 C 16,1 C 99 % 1011,1 hPa 0,0 l/m 2 min 0 min 228 W/m 6,3 km/h (2 Bft)
19.09.2014 09:26 16,6 C 16,1 C 99 % 1011,2 hPa 0,0 l/m 2 min 0 min 256 W/m 8,4 km/h (2 Bft)
19.09.2014 09:28 16,7 C 16,1 C 99 % 1011,2 hPa 0,0 l/m 2 min 0 min 237 W/m 8,4 km/h (2 Bft)
19.09.2014 09:30 16,7 C 16,1 C 99 % 1011,2 hPa 0,0 l/m 2 min 0 min 273 W/m 6,3 km/h (2 Bft)
19.09.2014 09:32 16,8 C 16,1 C 100 % 1011,2 hPa 0,0 l/m 2 min 0 min 291 W/m 6,3 km/h (2 Bft)
19.09.2014 09:33 16,9 C 16,7 C 100 % 1011,2 hPa 0,0 l/m 1 min 0 min 273 W/m 6,3 km/h (2 Bft)
19.09.2014 09:34 16,9 C 16,7 C 100 % 1011,2 hPa 0,0 l/m 1 min 0 min 216 W/m 6,3 km/h (2 Bft)
19.09.2014 09:36 17,0 C 16,7 C 99 % 1011,2 hPa 0,0 l/m 2 min 0 min 253 W/m 8,4 km/h (2 Bft)
19.09.2014 09:38 17,1 C 16,7 C 99 % 1011,2 hPa 0,0 l/m 2 min 0 min 248 W/m 8,4 km/h (2 Bft)
19.09.2014 09:40 17,2 C 16,7 C 99 % 1011,3 hPa 0,0 l/m 2 min 0 min 347 W/m 6,3 km/h (2 Bft)
19.09.2014 09:42 17,3 C 16,7 C 100 % 1011,2 hPa 0,0 l/m 2 min 0 min 256 W/m 4,2 km/h (1 Bft)
19.09.2014 09:44 17,3 C 16,7 C 100 % 1011,2 hPa 0,0 l/m 2 min 0 min 223 W/m 6,3 km/h (2 Bft)
19.09.2014 09:46 17,4 C 17,2 C 100 % 1011,2 hPa 0,0 l/m 2 min 0 min 220 W/m 4,2 km/h (1 Bft)
19.09.2014 09:48 17,5 C 17,2 C 100 % 1011,2 hPa 0,0 l/m 2 min 0 min 204 W/m 6,3 km/h (2 Bft)
19.09.2014 09:50 17,6 C 17,2 C 100 % 1011,2 hPa 0,0 l/m 2 min 0 min 202 W/m 6,3 km/h (2 Bft)
19.09.2014 09:52 17,7 C 17,2 C 100 % 1011,2 hPa 0,0 l/m 2 min 0 min 275 W/m 4,2 km/h (1 Bft)
19.09.2014 09:54 17,8 C 17,2 C 100 % 1011,3 hPa 0,0 l/m 2 min 0 min 304 W/m 4,2 km/h (1 Bft)
19.09.2014 09:56 17,9 C 17,2 C 100 % 1011,3 hPa 0,0 l/m 2 min 0 min 277 W/m 2,1 km/h (1 Bft)
19.09.2014 09:58 17,9 C 17,2 C 100 % 1011,3 hPa 0,0 l/m 2 min 0 min 380 W/m 2,1 km/h (1 Bft)
19.09.2014 10:00 18,1 C 17,8 C 100 % 1011,3 hPa 0,0 l/m 2 min 0 min 332 W/m 6,3 km/h (2 Bft)
19.09.2014 10:02 18,2 C 17,8 C 100 % 1011,3 hPa 0,0 l/m 2 min 0 min 288 W/m 10,5 km/h (2 Bft)
19.09.2014 10:04 18,3 C 17,8 C 100 % 1011,3 hPa 0,0 l/m 2 min 0 min 297 W/m 12,6 km/h (3 Bft)
19.09.2014 10:06 18,3 C 17,2 C 100 % 1011,3 hPa 0,0 l/m 2 min 0 min 253 W/m 10,5 km/h (2 Bft)
19.09.2014 10:08 18,3 C 17,2 C 100 % 1011,3 hPa 0,0 l/m 2 min 0 min 250 W/m 8,4 km/h (2 Bft)
19.09.2014 10:10 18,4 C 17,8 C 100 % 1011,3 hPa 0,0 l/m 2 min 0 min 255 W/m 14,6 km/h (3 Bft)
19.09.2014 10:12 18,4 C 17,8 C 100 % 1011,3 hPa 0,0 l/m 2 min 0 min 269 W/m 12,6 km/h (3 Bft)
19.09.2014 10:14 18,4 C 17,8 C 100 % 1011,3 hPa 0,0 l/m 2 min 0 min 289 W/m 6,3 km/h (2 Bft)
19.09.2014 10:16 18,4 C 17,8 C 100 % 1011,3 hPa 0,0 l/m 2 min 0 min 334 W/m 4,2 km/h (1 Bft)
19.09.2014 10:18 18,5 C 17,8 C 100 % 1011,3 hPa 0,0 l/m 2 min 0 min 380 W/m 6,3 km/h (2 Bft)
19.09.2014 10:20 18,6 C 18,3 C 100 % 1011,3 hPa 0,0 l/m 2 min 0 min 504 W/m 4,2 km/h (1 Bft)
19.09.2014 10:22 18,7 C 18,3 C 100 % 1011,3 hPa 0,0 l/m 2 min 0 min 525 W/m 10,5 km/h (2 Bft)
19.09.2014 10:24 18,8 C 18,3 C 100 % 1011,3 hPa 0,0 l/m 2 min 0 min 530 W/m 12,6 km/h (3 Bft)
19.09.2014 10:26 18,8 C 18,3 C 100 % 1011,2 hPa 0,0 l/m 2 min 0 min 477 W/m 14,6 km/h (3 Bft)
19.09.2014 10:28 18,8 C 18,3 C 100 % 1011,3 hPa 0,0 l/m 2 min 0 min 505 W/m 8,4 km/h (2 Bft)
19.09.2014 10:30 18,9 C 18,3 C 100 % 1011,3 hPa 0,0 l/m 2 min 0 min 470 W/m 10,5 km/h (2 Bft)
19.09.2014 10:32 18,9 C 17,8 C 100 % 1011,3 hPa 0,0 l/m 2 min 0 min 368 W/m 10,5 km/h (2 Bft)
19.09.2014 10:34 19,0 C 17,8 C 100 % 1011,3 hPa 0,0 l/m 2 min 0 min 419 W/m 12,6 km/h (3 Bft)
19.09.2014 10:36 19,0 C 17,8 C 100 % 1011,2 hPa 0,0 l/m 2 min 0 min 441 W/m 10,5 km/h (2 Bft)
19.09.2014 10:38 19,1 C 17,8 C 100 % 1011,3 hPa 0,0 l/m 2 min 0 min 412 W/m 8,4 km/h (2 Bft)
19.09.2014 10:40 19,1 C 17,8 C 100 % 1011,2 hPa 0,0 l/m 2 min 0 min 387 W/m 10,5 km/h (2 Bft)
19.09.2014 10:42 19,1 C 17,8 C 100 % 1011,2 hPa 0,0 l/m 2 min 0 min 360 W/m 8,4 km/h (2 Bft)
19.09.2014 10:44 19,2 C 17,8 C 100 % 1011,2 hPa 0,0 l/m 2 min 0 min 337 W/m 8,4 km/h (2 Bft)
19.09.2014 10:46 19,2 C 17,8 C 100 % 1011,2 hPa 0,0 l/m 2 min 0 min 344 W/m 6,3 km/h (2 Bft)
19.09.2014 10:48 19,2 C 17,8 C 100 % 1011,2 hPa 0,0 l/m 2 min 0 min 363 W/m 8,4 km/h (2 Bft)
19.09.2014 10:50 19,3 C 18,3 C 100 % 1011,2 hPa 0,0 l/m 2 min 0 min 391 W/m 6,3 km/h (2 Bft)
19.09.2014 10:52 19,3 C 18,3 C 100 % 1011,1 hPa 0,0 l/m 2 min 0 min 413 W/m 6,3 km/h (2 Bft)
19.09.2014 10:54 19,4 C 18,3 C 100 % 1011,1 hPa 0,0 l/m 2 min 0 min 425 W/m 6,3 km/h (2 Bft)
19.09.2014 10:56 19,5 C 18,3 C 100 % 1011,1 hPa 0,0 l/m 2 min 0 min 368 W/m 6,3 km/h (2 Bft)
19.09.2014 10:58 19,6 C 18,3 C 100 % 1011,1 hPa 0,0 l/m 2 min 0 min 310 W/m 4,2 km/h (1 Bft)
19.09.2014 11:00 19,6 C 18,3 C 100 % 1011,0 hPa 0,0 l/m 2 min 0 min 311 W/m 6,3 km/h (2 Bft)
19.09.2014 11:02 19,6 C 18,3 C 100 % 1011,0 hPa 0,0 l/m 2 min 0 min 290 W/m 6,3 km/h (2 Bft)
19.09.2014 11:04 19,6 C 18,3 C 100 % 1011,0 hPa 0,0 l/m 0 min 0 min 246 W/m 8,4 km/h (2 Bft)
19.09.2014 11:06 19,6 C 18,3 C 99 % 1010,9 hPa 0,0 l/m 0 min 0 min 245 W/m 8,4 km/h (2 Bft)
19.09.2014 11:08 19,7 C 18,3 C 99 % 1010,9 hPa 0,0 l/m 2 min 0 min 269 W/m 4,2 km/h (1 Bft)
19.09.2014 11:10 19,7 C 18,3 C 100 % 1010,9 hPa 0,0 l/m 2 min 0 min 286 W/m 6,3 km/h (2 Bft)
19.09.2014 11:12 19,7 C 18,3 C 100 % 1011,0 hPa 0,0 l/m 2 min 0 min 306 W/m 4,2 km/h (1 Bft)
19.09.2014 11:14 19,8 C 18,3 C 99 % 1010,9 hPa 0,0 l/m 2 min 0 min 378 W/m 6,3 km/h (2 Bft)
19.09.2014 11:16 19,9 C 18,3 C 99 % 1010,9 hPa 0,0 l/m 2 min 0 min 493 W/m 8,4 km/h (2 Bft)
19.09.2014 11:18 19,9 C 18,9 C 99 % 1010,8 hPa 0,0 l/m 2 min 0 min 554 W/m 8,4 km/h (2 Bft)
19.09.2014 11:20 20,0 C 18,9 C 99 % 1010,9 hPa 0,0 l/m 2 min 0 min 538 W/m 6,3 km/h (2 Bft)
19.09.2014 11:22 20,1 C 18,9 C 99 % 1010,9 hPa 0,0 l/m 2 min 0 min 460 W/m 8,4 km/h (2 Bft)
19.09.2014 11:24 20,2 C 18,9 C 99 % 1010,8 hPa 0,0 l/m 2 min 0 min 426 W/m 6,3 km/h (2 Bft)
19.09.2014 11:26 20,2 C 18,9 C 99 % 1010,8 hPa 0,0 l/m 2 min 0 min 447 W/m 8,4 km/h (2 Bft)
19.09.2014 11:28 20,3 C 18,9 C 98 % 1010,8 hPa 0,0 l/m 2 min 0 min 497 W/m 4,2 km/h (1 Bft)
19.09.2014 11:30 20,4 C 18,9 C 98 % 1010,8 hPa 0,0 l/m 2 min 0 min 473 W/m 8,4 km/h (2 Bft)
19.09.2014 11:32 20,5 C 18,9 C 98 % 1010,8 hPa 0,0 l/m 2 min 0 min 393 W/m 8,4 km/h (2 Bft)
19.09.2014 11:34 20,6 C 18,9 C 98 % 1010,8 hPa 0,0 l/m 2 min 0 min 340 W/m 6,3 km/h (2 Bft)
19.09.2014 11:36 20,7 C 18,9 C 97 % 1010,8 hPa 0,0 l/m 2 min 0 min 339 W/m 8,4 km/h (2 Bft)
19.09.2014 11:38 20,8 C 18,9 C 97 % 1010,8 hPa 0,0 l/m 2 min 0 min 316 W/m 4,2 km/h (1 Bft)
19.09.2014 11:40 20,8 C 18,9 C 96 % 1010,9 hPa 0,0 l/m 0 min 0 min 277 W/m 6,3 km/h (2 Bft)
19.09.2014 11:42 20,9 C 18,9 C 96 % 1010,9 hPa 0,0 l/m 0 min 0 min 267 W/m 10,5 km/h (2 Bft)
19.09.2014 11:44 20,9 C 18,9 C 95 % 1011,0 hPa 0,0 l/m 2 min 0 min 300 W/m 8,4 km/h (2 Bft)
19.09.2014 11:46 21,0 C 18,9 C 95 % 1011,0 hPa 0,0 l/m 2 min 0 min 347 W/m 6,3 km/h (2 Bft)
19.09.2014 11:48 21,1 C 18,9 C 94 % 1011,0 hPa 0,0 l/m 2 min 0 min 310 W/m 8,4 km/h (2 Bft)
19.09.2014 11:50 21,1 C 18,9 C 94 % 1011,0 hPa 0,0 l/m 0 min 0 min 288 W/m 6,3 km/h (2 Bft)
19.09.2014 11:52 21,2 C 18,9 C 93 % 1010,9 hPa 0,0 l/m 0 min 0 min 274 W/m 6,3 km/h (2 Bft)
19.09.2014 11:54 21,2 C 18,9 C 93 % 1010,9 hPa 0,0 l/m 0 min 0 min 268 W/m 6,3 km/h (2 Bft)
19.09.2014 11:56 21,3 C 18,9 C 92 % 1011,0 hPa 0,0 l/m 0 min 0 min 269 W/m 4,2 km/h (1 Bft)
19.09.2014 11:58 21,3 C 18,9 C 92 % 1011,0 hPa 0,0 l/m 0 min 0 min 273 W/m 2,1 km/h (1 Bft)
19.09.2014 12:00 21,3 C 19,4 C 91 % 1011,0 hPa 0,0 l/m 2 min 0 min 322 W/m 4,2 km/h (1 Bft)
19.09.2014 12:02 21,4 C 19,4 C 91 % 1011,0 hPa 0,0 l/m 2 min 0 min 406 W/m 4,2 km/h (1 Bft)
19.09.2014 12:06 21,5 C 19,4 C 90 % 1011,0 hPa 0,0 l/m 2 min 0 min 502 W/m 6,3 km/h (2 Bft)
19.09.2014 12:08 21,7 C 20,0 C 90 % 1011,0 hPa 0,0 l/m 2 min 0 min 547 W/m 8,4 km/h (2 Bft)
19.09.2014 12:10 21,7 C 20,0 C 90 % 1011,0 hPa 0,0 l/m 2 min 0 min 394 W/m 8,4 km/h (2 Bft)
19.09.2014 12:12 21,7 C 19,4 C 89 % 1011,0 hPa 0,0 l/m 2 min 0 min 355 W/m 8,4 km/h (2 Bft)
19.09.2014 12:14 21,8 C 19,4 C 88 % 1011,0 hPa 0,0 l/m 2 min 0 min 366 W/m 8,4 km/h (2 Bft)
19.09.2014 12:16 21,9 C 20,0 C 88 % 1011,0 hPa 0,0 l/m 2 min 0 min 479 W/m 10,5 km/h (2 Bft)
19.09.2014 12:18 21,9 C 20,0 C 88 % 1011,0 hPa 0,0 l/m 2 min 0 min 469 W/m 8,4 km/h (2 Bft)
19.09.2014 12:20 22,0 C 20,0 C 88 % 1011,0 hPa 0,0 l/m 2 min 0 min 433 W/m 10,5 km/h (2 Bft)
19.09.2014 12:22 22,0 C 20,0 C 87 % 1010,9 hPa 0,0 l/m 2 min 0 min 517 W/m 8,4 km/h (2 Bft)
19.09.2014 12:24 22,1 C 20,0 C 87 % 1011,0 hPa 0,0 l/m 2 min 0 min 609 W/m 6,3 km/h (2 Bft)
19.09.2014 12:26 22,2 C 20,0 C 87 % 1011,0 hPa 0,0 l/m 2 min 0 min 696 W/m 4,2 km/h (1 Bft)
19.09.2014 12:28 22,2 C 20,6 C 87 % 1011,0 hPa 0,0 l/m 2 min 0 min 706 W/m 10,5 km/h (2 Bft)
19.09.2014 12:30 22,3 C 20,6 C 87 % 1011,0 hPa 0,0 l/m 2 min 0 min 648 W/m 6,3 km/h (2 Bft)
19.09.2014 12:32 22,4 C 20,6 C 87 % 1011,0 hPa 0,0 l/m 2 min 0 min 464 W/m 6,3 km/h (2 Bft)
19.09.2014 12:34 22,6 C 20,6 C 86 % 1011,0 hPa 0,0 l/m 2 min 0 min 388 W/m 6,3 km/h (2 Bft)
19.09.2014 12:36 22,6 C 20,0 C 85 % 1010,9 hPa 0,0 l/m 2 min 0 min 436 W/m 4,2 km/h (1 Bft)
19.09.2014 12:38 22,6 C 20,0 C 85 % 1011,0 hPa 0,0 l/m 2 min 0 min 403 W/m 4,2 km/h (1 Bft)
19.09.2014 12:40 22,7 C 20,0 C 84 % 1011,0 hPa 0,0 l/m 2 min 0 min 390 W/m 8,4 km/h (2 Bft)
19.09.2014 12:42 22,8 C 20,0 C 84 % 1011,0 hPa 0,0 l/m 2 min 0 min 497 W/m 6,3 km/h (2 Bft)
19.09.2014 12:44 22,8 C 20,6 C 85 % 1011,1 hPa 0,0 l/m 2 min 0 min 642 W/m 8,4 km/h (2 Bft)
19.09.2014 12:46 22,9 C 20,6 C 85 % 1011,1 hPa 0,0 l/m 2 min 0 min 672 W/m 6,3 km/h (2 Bft)
19.09.2014 12:48 23,1 C 20,6 C 85 % 1011,1 hPa 0,0 l/m 2 min 0 min 691 W/m 8,4 km/h (2 Bft)
19.09.2014 12:50 23,1 C 21,1 C 84 % 1011,1 hPa 0,0 l/m 2 min 0 min 699 W/m 8,4 km/h (2 Bft)
19.09.2014 12:52 23,2 C 21,1 C 84 % 1011,1 hPa 0,0 l/m 2 min 0 min 744 W/m 10,5 km/h (2 Bft)
19.09.2014 12:54 23,3 C 21,1 C 84 % 1011,1 hPa 0,0 l/m 2 min 0 min 718 W/m 8,4 km/h (2 Bft)
19.09.2014 12:56 23,4 C 21,1 C 83 % 1011,1 hPa 0,0 l/m 2 min 0 min 714 W/m 10,5 km/h (2 Bft)
19.09.2014 12:58 23,5 C 21,1 C 83 % 1011,1 hPa 0,0 l/m 2 min 0 min 746 W/m 12,6 km/h (3 Bft)
19.09.2014 13:00 23,6 C 21,7 C 83 % 1011,1 hPa 0,0 l/m 2 min 0 min 829 W/m 10,5 km/h (2 Bft)
19.09.2014 13:02 23,7 C 21,7 C 83 % 1011,1 hPa 0,0 l/m 2 min 0 min 694 W/m 8,4 km/h (2 Bft)
19.09.2014 13:04 23,8 C 21,7 C 82 % 1011,1 hPa 0,0 l/m 2 min 0 min 743 W/m 14,6 km/h (3 Bft)
19.09.2014 13:06 23,8 C 21,7 C 81 % 1011,1 hPa 0,0 l/m 2 min 0 min 582 W/m 12,6 km/h (3 Bft)
19.09.2014 13:08 23,9 C 21,7 C 81 % 1011,1 hPa 0,0 l/m 2 min 0 min 445 W/m 6,3 km/h (2 Bft)
19.09.2014 13:10 23,9 C 22,2 C 81 % 1011,1 hPa 0,0 l/m 2 min 0 min 655 W/m 10,5 km/h (2 Bft)
19.09.2014 13:12 24,1 C 22,2 C 82 % 1011,1 hPa 0,0 l/m 2 min 0 min 852 W/m 12,6 km/h (3 Bft)
19.09.2014 13:14 24,2 C 22,8 C 82 % 1011,1 hPa 0,0 l/m 2 min 0 min 843 W/m 14,6 km/h (3 Bft)
19.09.2014 13:16 24,2 C 22,2 C 81 % 1011,1 hPa 0,0 l/m 2 min 0 min 799 W/m 10,5 km/h (2 Bft)
19.09.2014 13:18 24,3 C 22,2 C 79 % 1011,2 hPa 0,0 l/m 2 min 0 min 422 W/m 6,3 km/h (2 Bft)
19.09.2014 13:20 24,3 C 22,2 C 79 % 1011,2 hPa 0,0 l/m 2 min 0 min 516 W/m 10,5 km/h (2 Bft)
19.09.2014 13:22 24,3 C 22,2 C 79 % 1011,1 hPa 0,0 l/m 2 min 0 min 396 W/m 8,4 km/h (2 Bft)
19.09.2014 13:24 24,4 C 22,2 C 80 % 1011,2 hPa 0,0 l/m 2 min 0 min 425 W/m 8,4 km/h (2 Bft)
19.09.2014 13:26 24,4 C 22,2 C 80 % 1011,1 hPa 0,0 l/m 2 min 0 min 470 W/m 6,3 km/h (2 Bft)
19.09.2014 13:28 24,5 C 22,2 C 80 % 1011,1 hPa 0,0 l/m 2 min 0 min 407 W/m 8,4 km/h (2 Bft)
19.09.2014 13:30 24,5 C 22,2 C 80 % 1011,1 hPa 0,0 l/m 2 min 0 min 332 W/m 10,5 km/h (2 Bft)
19.09.2014 13:32 24,6 C 21,7 C 80 % 1011,1 hPa 0,0 l/m 0 min 0 min 269 W/m 10,5 km/h (2 Bft)
19.09.2014 13:34 24,5 C 21,7 C 79 % 1011,1 hPa 0,0 l/m 0 min 0 min 286 W/m 12,6 km/h (3 Bft)
19.09.2014 13:36 24,5 C 21,7 C 79 % 1011,2 hPa 0,0 l/m 2 min 0 min 341 W/m 8,4 km/h (2 Bft)
19.09.2014 13:38 24,5 C 21,7 C 80 % 1011,1 hPa 0,0 l/m 2 min 0 min 341 W/m 8,4 km/h (2 Bft)
19.09.2014 13:40 24,4 C 21,7 C 79 % 1011,1 hPa 0,0 l/m 2 min 0 min 345 W/m 10,5 km/h (2 Bft)
19.09.2014 13:42 24,5 C 21,7 C 79 % 1011,2 hPa 0,0 l/m 0 min 0 min 259 W/m 10,5 km/h (2 Bft)
19.09.2014 13:44 24,4 C 21,7 C 79 % 1011,2 hPa 0,0 l/m 0 min 0 min 256 W/m 10,5 km/h (2 Bft)
19.09.2014 13:46 24,4 C 21,7 C 80 % 1011,3 hPa 0,0 l/m 2 min 0 min 394 W/m 6,3 km/h (2 Bft)
19.09.2014 13:48 24,4 C 21,7 C 79 % 1011,4 hPa 0,0 l/m 2 min 0 min 466 W/m 6,3 km/h (2 Bft)
19.09.2014 13:50 24,4 C 21,7 C 79 % 1011,3 hPa 0,0 l/m 2 min 0 min 540 W/m 8,4 km/h (2 Bft)
19.09.2014 13:52 24,4 C 21,7 C 79 % 1011,3 hPa 0,0 l/m 2 min 0 min 527 W/m 8,4 km/h (2 Bft)
19.09.2014 13:54 24,4 C 21,7 C 79 % 1011,3 hPa 0,0 l/m 2 min 0 min 340 W/m 4,2 km/h (1 Bft)
19.09.2014 13:56 24,4 C 21,7 C 79 % 1011,2 hPa 0,0 l/m 2 min 0 min 517 W/m 4,2 km/h (1 Bft)
19.09.2014 13:58 24,4 C 21,7 C 78 % 1011,3 hPa 0,0 l/m 2 min 0 min 642 W/m 4,2 km/h (1 Bft)
19.09.2014 14:00 24,4 C 22,2 C 79 % 1011,3 hPa 0,0 l/m 2 min 0 min 671 W/m 12,6 km/h (3 Bft)
19.09.2014 14:02 24,4 C 22,2 C 79 % 1011,4 hPa 0,0 l/m 2 min 0 min 610 W/m 12,6 km/h (3 Bft)
19.09.2014 14:04 24,4 C 22,2 C 80 % 1011,2 hPa 0,0 l/m 2 min 0 min 719 W/m 10,5 km/h (2 Bft)
19.09.2014 14:06 24,6 C 22,8 C 81 % 1011,2 hPa 0,0 l/m 2 min 0 min 743 W/m 10,5 km/h (2 Bft)
19.09.2014 14:08 24,6 C 22,8 C 80 % 1011,2 hPa 0,0 l/m 2 min 0 min 765 W/m 10,5 km/h (2 Bft)
19.09.2014 14:10 24,7 C 22,8 C 80 % 1011,2 hPa 0,0 l/m 2 min 0 min 762 W/m 12,6 km/h (3 Bft)
19.09.2014 14:12 24,8 C 22,8 C 78 % 1011,1 hPa 0,0 l/m 2 min 0 min 754 W/m 8,4 km/h (2 Bft)
19.09.2014 14:14 24,8 C 22,8 C 78 % 1011,1 hPa 0,0 l/m 2 min 0 min 328 W/m 10,5 km/h (2 Bft)
19.09.2014 14:16 24,9 C 22,8 C 78 % 1011,1 hPa 0,0 l/m 2 min 0 min 373 W/m 12,6 km/h (3 Bft)
19.09.2014 14:18 24,9 C 22,8 C 77 % 1011,1 hPa 0,0 l/m 2 min 0 min 756 W/m 12,6 km/h (3 Bft)
19.09.2014 14:20 24,9 C 22,2 C 77 % 1011,1 hPa 0,0 l/m 2 min 0 min 324 W/m 10,5 km/h (2 Bft)
19.09.2014 14:22 25,0 C 22,2 C 77 % 1011,1 hPa 0,0 l/m 0 min 0 min 235 W/m 8,4 km/h (2 Bft)
19.09.2014 14:24 25,0 C 22,2 C 76 % 1011,1 hPa 0,0 l/m 0 min 0 min 216 W/m 6,3 km/h (2 Bft)
19.09.2014 14:26 25,0 C 22,2 C 77 % 1011,1 hPa 0,0 l/m 0 min 0 min 258 W/m 6,3 km/h (2 Bft)
19.09.2014 14:28 25,0 C 22,2 C 77 % 1011,1 hPa 0,0 l/m 0 min 0 min 260 W/m 8,4 km/h (2 Bft)
19.09.2014 14:30 25,0 C 22,2 C 76 % 1011,1 hPa 0,0 l/m 0 min 0 min 260 W/m 6,3 km/h (2 Bft)
19.09.2014 14:32 25,0 C 22,8 C 77 % 1011,1 hPa 0,0 l/m 2 min 0 min 463 W/m 4,2 km/h (1 Bft)
19.09.2014 14:34 25,0 C 22,2 C 76 % 1011,1 hPa 0,0 l/m 2 min 0 min 424 W/m 6,3 km/h (2 Bft)
19.09.2014 14:36 25,1 C 22,2 C 76 % 1011,2 hPa 0,0 l/m 2 min 0 min 309 W/m 6,3 km/h (2 Bft)
19.09.2014 14:38 25,1 C 22,2 C 76 % 1011,0 hPa 0,0 l/m 2 min 0 min 315 W/m 8,4 km/h (2 Bft)
19.09.2014 14:40 25,1 C 22,8 C 77 % 1011,1 hPa 0,0 l/m 2 min 0 min 422 W/m 8,4 km/h (2 Bft)
19.09.2014 14:42 25,1 C 23,3 C 78 % 1011,0 hPa 0,0 l/m 2 min 0 min 764 W/m 8,4 km/h (2 Bft)
19.09.2014 14:44 25,2 C 23,3 C 77 % 1011,0 hPa 0,0 l/m 2 min 0 min 523 W/m 6,3 km/h (2 Bft)
19.09.2014 14:46 25,3 C 23,3 C 78 % 1011,0 hPa 0,0 l/m 2 min 0 min 589 W/m 8,4 km/h (2 Bft)
19.09.2014 14:48 25,3 C 23,3 C 77 % 1011,0 hPa 0,0 l/m 2 min 0 min 665 W/m 10,5 km/h (2 Bft)
19.09.2014 14:50 25,4 C 23,3 C 76 % 1011,0 hPa 0,0 l/m 2 min 0 min 511 W/m 12,6 km/h (3 Bft)
19.09.2014 14:52 25,4 C 22,8 C 75 % 1011,0 hPa 0,0 l/m 2 min 0 min 301 W/m 8,4 km/h (2 Bft)
19.09.2014 14:54 25,4 C 22,8 C 75 % 1011,0 hPa 0,0 l/m 0 min 0 min 272 W/m 16,7 km/h (3 Bft)
19.09.2014 14:56 25,5 C 22,8 C 75 % 1011,0 hPa 0,0 l/m 2 min 0 min 385 W/m 12,6 km/h (3 Bft)
19.09.2014 14:58 25,6 C 22,8 C 75 % 1011,1 hPa 0,0 l/m 2 min 0 min 502 W/m 12,6 km/h (3 Bft)
19.09.2014 15:00 25,6 C 22,8 C 74 % 1011,1 hPa 0,0 l/m 2 min 0 min 569 W/m 14,6 km/h (3 Bft)
19.09.2014 15:02 25,6 C 22,8 C 73 % 1011,1 hPa 0,0 l/m 2 min 0 min 602 W/m 14,6 km/h (3 Bft)
19.09.2014 15:04 25,7 C 22,8 C 74 % 1011,0 hPa 0,0 l/m 2 min 0 min 607 W/m 10,5 km/h (2 Bft)
19.09.2014 15:06 25,7 C 23,3 C 74 % 1011,0 hPa 0,0 l/m 2 min 0 min 622 W/m 6,3 km/h (2 Bft)
19.09.2014 15:08 25,8 C 23,3 C 73 % 1011,1 hPa 0,0 l/m 2 min 0 min 618 W/m 12,6 km/h (3 Bft)
19.09.2014 15:10 25,8 C 23,3 C 72 % 1011,1 hPa 0,0 l/m 2 min 0 min 618 W/m 12,6 km/h (3 Bft)
19.09.2014 15:12 25,9 C 23,3 C 72 % 1011,1 hPa 0,0 l/m 2 min 0 min 575 W/m 14,6 km/h (3 Bft)
19.09.2014 15:14 25,9 C 22,8 C 72 % 1011,1 hPa 0,0 l/m 2 min 0 min 455 W/m 14,6 km/h (3 Bft)
19.09.2014 15:16 25,9 C 22,8 C 71 % 1011,1 hPa 0,0 l/m 0 min 0 min 212 W/m 16,7 km/h (3 Bft)
19.09.2014 15:18 25,9 C 22,8 C 72 % 1011,1 hPa 0,0 l/m 0 min 0 min 218 W/m 10,5 km/h (2 Bft)
19.09.2014 15:20 25,9 C 22,8 C 72 % 1011,1 hPa 0,0 l/m 2 min 0 min 377 W/m 10,5 km/h (2 Bft)
19.09.2014 15:22 25,9 C 22,8 C 71 % 1011,1 hPa 0,0 l/m 2 min 0 min 526 W/m 12,6 km/h (3 Bft)
19.09.2014 15:24 25,9 C 22,8 C 70 % 1011,1 hPa 0,0 l/m 2 min 0 min 546 W/m 10,5 km/h (2 Bft)
19.09.2014 15:26 25,9 C 22,8 C 71 % 1011,1 hPa 0,0 l/m 2 min 0 min 518 W/m 12,6 km/h (3 Bft)
19.09.2014 15:28 25,9 C 22,8 C 72 % 1011,1 hPa 0,0 l/m 2 min 0 min 524 W/m 10,5 km/h (2 Bft)
19.09.2014 15:30 26,0 C 22,8 C 71 % 1011,1 hPa 0,0 l/m 2 min 0 min 438 W/m 10,5 km/h (2 Bft)
19.09.2014 15:32 26,0 C 22,8 C 71 % 1011,1 hPa 0,0 l/m 0 min 0 min 267 W/m 10,5 km/h (2 Bft)
19.09.2014 15:34 26,0 C 22,8 C 71 % 1011,1 hPa 0,0 l/m 2 min 0 min 374 W/m 8,4 km/h (2 Bft)
19.09.2014 15:36 26,1 C 23,3 C 73 % 1011,1 hPa 0,0 l/m 2 min 0 min 594 W/m 10,5 km/h (2 Bft)
19.09.2014 15:38 26,1 C 23,3 C 72 % 1011,1 hPa 0,0 l/m 2 min 0 min 589 W/m 12,6 km/h (3 Bft)
19.09.2014 15:40 26,1 C 23,3 C 71 % 1011,1 hPa 0,0 l/m 2 min 0 min 603 W/m 12,6 km/h (3 Bft)
19.09.2014 15:42 26,2 C 23,3 C 72 % 1011,1 hPa 0,0 l/m 2 min 0 min 459 W/m 8,4 km/h (2 Bft)
19.09.2014 15:44 26,2 C 23,3 C 71 % 1011,1 hPa 0,0 l/m 2 min 0 min 471 W/m 14,6 km/h (3 Bft)
19.09.2014 15:46 26,2 C 23,3 C 71 % 1011,1 hPa 0,0 l/m 2 min 0 min 561 W/m 12,6 km/h (3 Bft)
19.09.2014 15:48 26,2 C 23,3 C 70 % 1011,1 hPa 0,0 l/m 2 min 0 min 471 W/m 12,6 km/h (3 Bft)
19.09.2014 15:50 26,2 C 23,3 C 70 % 1011,1 hPa 0,0 l/m 2 min 0 min 306 W/m 12,6 km/h (3 Bft)
19.09.2014 15:52 26,2 C 23,3 C 71 % 1011,1 hPa 0,0 l/m 2 min 0 min 319 W/m 14,6 km/h (3 Bft)
19.09.2014 15:54 26,2 C 23,3 C 71 % 1011,2 hPa 0,0 l/m 2 min 0 min 436 W/m 12,6 km/h (3 Bft)
19.09.2014 15:56 26,2 C 23,3 C 72 % 1011,2 hPa 0,0 l/m 2 min 0 min 334 W/m 10,5 km/h (2 Bft)
19.09.2014 15:58 26,2 C 23,3 C 72 % 1011,2 hPa 0,0 l/m 2 min 0 min 358 W/m 8,4 km/h (2 Bft)
19.09.2014 16:00 26,2 C 23,3 C 71 % 1011,1 hPa 0,0 l/m 2 min 0 min 447 W/m 12,6 km/h (3 Bft)
19.09.2014 16:02 25,9 C 23,3 C 70 % 1011,1 hPa 0,0 l/m 2 min 0 min 395 W/m 6,3 km/h (2 Bft)
19.09.2014 16:04 25,6 C 23,3 C 72 % 1011,1 hPa 0,0 l/m 2 min 0 min 427 W/m 12,6 km/h (3 Bft)
19.09.2014 16:06 25,2 C 23,3 C 73 % 1011,0 hPa 0,0 l/m 2 min 0 min 459 W/m 12,6 km/h (3 Bft)
19.09.2014 16:08 25,1 C 23,3 C 72 % 1011,0 hPa 0,0 l/m 2 min 0 min 463 W/m 8,4 km/h (2 Bft)
19.09.2014 16:10 24,9 C 23,3 C 73 % 1011,0 hPa 0,0 l/m 2 min 0 min 467 W/m 10,5 km/h (2 Bft)
19.09.2014 16:12 24,9 C 23,3 C 75 % 1011,1 hPa 0,0 l/m 2 min 0 min 471 W/m 8,4 km/h (2 Bft)
19.09.2014 16:14 24,8 C 23,3 C 73 % 1011,1 hPa 0,0 l/m 2 min 0 min 458 W/m 8,4 km/h (2 Bft)
19.09.2014 16:16 24,8 C 23,3 C 76 % 1011,1 hPa 0,0 l/m 2 min 0 min 468 W/m 8,4 km/h (2 Bft)
19.09.2014 16:18 24,8 C 23,3 C 73 % 1011,1 hPa 0,0 l/m 2 min 0 min 486 W/m 4,2 km/h (1 Bft)
19.09.2014 16:20 24,9 C 23,3 C 75 % 1011,1 hPa 0,0 l/m 2 min 0 min 468 W/m 4,2 km/h (1 Bft)
19.09.2014 16:22 25,1 C 23,3 C 75 % 1011,1 hPa 0,0 l/m 2 min 0 min 464 W/m 8,4 km/h (2 Bft)
19.09.2014 16:24 25,2 C 23,3 C 74 % 1011,0 hPa 0,0 l/m 2 min 0 min 461 W/m 6,3 km/h (2 Bft)
19.09.2014 16:26 25,2 C 23,3 C 74 % 1011,0 hPa 0,0 l/m 2 min 0 min 445 W/m 6,3 km/h (2 Bft)
19.09.2014 16:28 25,1 C 22,8 C 72 % 1011,1 hPa 0,0 l/m 2 min 0 min 461 W/m 10,5 km/h (2 Bft)
19.09.2014 16:30 25,1 C 23,3 C 73 % 1011,1 hPa 0,0 l/m 2 min 0 min 475 W/m 8,4 km/h (2 Bft)
19.09.2014 16:32 25,1 C 22,8 C 71 % 1011,0 hPa 0,0 l/m 2 min 0 min 364 W/m 8,4 km/h (2 Bft)
19.09.2014 16:34 24,8 C 22,8 C 73 % 1011,0 hPa 0,0 l/m 2 min 0 min 268 W/m 8,4 km/h (2 Bft)
19.09.2014 16:36 24,7 C 22,8 C 74 % 1011,0 hPa 0,0 l/m 2 min 0 min 351 W/m 10,5 km/h (2 Bft)
19.09.2014 16:38 24,6 C 22,8 C 75 % 1010,9 hPa 0,0 l/m 2 min 0 min 316 W/m 10,5 km/h (2 Bft)
19.09.2014 16:40 24,6 C 22,8 C 76 % 1010,9 hPa 0,0 l/m 0 min 0 min 198 W/m 8,4 km/h (2 Bft)
19.09.2014 16:42 24,5 C 22,2 C 76 % 1010,9 hPa 0,0 l/m 2 min 0 min 339 W/m 12,6 km/h (3 Bft)
19.09.2014 16:44 24,5 C 22,2 C 75 % 1010,9 hPa 0,0 l/m 2 min 0 min 279 W/m 8,4 km/h (2 Bft)
19.09.2014 16:46 24,4 C 22,2 C 74 % 1010,9 hPa 0,0 l/m 0 min 0 min 139 W/m 10,5 km/h (2 Bft)
19.09.2014 16:48 24,2 C 22,2 C 76 % 1011,0 hPa 0,0 l/m 0 min 0 min 180 W/m 12,6 km/h (3 Bft)
19.09.2014 16:50 24,2 C 22,2 C 76 % 1011,0 hPa 0,0 l/m 2 min 0 min 237 W/m 10,5 km/h (2 Bft)
19.09.2014 16:52 24,3 C 22,2 C 77 % 1010,9 hPa 0,0 l/m 2 min 0 min 305 W/m 8,4 km/h (2 Bft)
19.09.2014 16:54 24,3 C 22,2 C 76 % 1010,9 hPa 0,0 l/m 2 min 0 min 339 W/m 8,4 km/h (2 Bft)
19.09.2014 16:56 24,5 C 22,2 C 75 % 1010,9 hPa 0,0 l/m 2 min 0 min 374 W/m 8,4 km/h (2 Bft)
19.09.2014 16:58 24,6 C 22,2 C 74 % 1010,9 hPa 0,0 l/m 2 min 0 min 299 W/m 8,4 km/h (2 Bft)
19.09.2014 17:00 24,5 C 22,2 C 75 % 1010,9 hPa 0,0 l/m 0 min 0 min 189 W/m 6,3 km/h (2 Bft)
19.09.2014 17:02 24,4 C 22,2 C 76 % 1010,9 hPa 0,0 l/m 2 min 0 min 321 W/m 4,2 km/h (1 Bft)
19.09.2014 17:04 24,6 C 22,2 C 76 % 1010,8 hPa 0,0 l/m 2 min 0 min 347 W/m 8,4 km/h (2 Bft)
19.09.2014 17:06 24,7 C 22,2 C 76 % 1010,9 hPa 0,0 l/m 2 min 0 min 337 W/m 12,6 km/h (3 Bft)
19.09.2014 17:08 24,7 C 22,2 C 75 % 1010,9 hPa 0,0 l/m 2 min 0 min 331 W/m 8,4 km/h (2 Bft)
19.09.2014 17:10 24,8 C 22,2 C 76 % 1010,8 hPa 0,0 l/m 2 min 0 min 344 W/m 10,5 km/h (2 Bft)
19.09.2014 17:12 24,8 C 22,2 C 74 % 1010,9 hPa 0,0 l/m 2 min 0 min 353 W/m 10,5 km/h (2 Bft)
19.09.2014 17:14 24,9 C 22,2 C 75 % 1010,8 hPa 0,0 l/m 2 min 0 min 306 W/m 8,4 km/h (2 Bft)
19.09.2014 17:16 24,9 C 22,8 C 74 % 1010,8 hPa 0,0 l/m 2 min 0 min 311 W/m 10,5 km/h (2 Bft)
19.09.2014 17:18 24,9 C 22,2 C 73 % 1010,8 hPa 0,0 l/m 2 min 0 min 311 W/m 8,4 km/h (2 Bft)
19.09.2014 17:20 24,8 C 22,2 C 73 % 1010,9 hPa 0,0 l/m 2 min 0 min 323 W/m 8,4 km/h (2 Bft)
19.09.2014 17:22 24,7 C 22,2 C 73 % 1010,9 hPa 0,0 l/m 2 min 0 min 323 W/m 6,3 km/h (2 Bft)
19.09.2014 17:24 24,7 C 22,2 C 73 % 1011,0 hPa 0,0 l/m 2 min 0 min 326 W/m 6,3 km/h (2 Bft)
19.09.2014 17:26 24,7 C 22,2 C 73 % 1011,0 hPa 0,0 l/m 2 min 0 min 304 W/m 8,4 km/h (2 Bft)
19.09.2014 17:28 24,7 C 22,2 C 74 % 1011,0 hPa 0,0 l/m 2 min 0 min 305 W/m 6,3 km/h (2 Bft)
19.09.2014 17:30 24,7 C 22,2 C 74 % 1011,0 hPa 0,0 l/m 2 min 0 min 307 W/m 8,4 km/h (2 Bft)
19.09.2014 17:32 24,8 C 22,2 C 75 % 1011,0 hPa 0,0 l/m 2 min 0 min 302 W/m 8,4 km/h (2 Bft)
19.09.2014 17:34 24,9 C 22,2 C 73 % 1011,0 hPa 0,0 l/m 2 min 0 min 254 W/m 8,4 km/h (2 Bft)
19.09.2014 17:36 24,8 C 22,2 C 72 % 1011,0 hPa 0,0 l/m 2 min 0 min 227 W/m 8,4 km/h (2 Bft)
19.09.2014 17:38 24,8 C 22,2 C 72 % 1011,0 hPa 0,0 l/m 2 min 0 min 254 W/m 4,2 km/h (1 Bft)
19.09.2014 17:40 24,9 C 22,2 C 73 % 1011,0 hPa 0,0 l/m 2 min 0 min 256 W/m 6,3 km/h (2 Bft)
19.09.2014 17:42 24,9 C 22,2 C 74 % 1011,0 hPa 0,0 l/m 2 min 0 min 233 W/m 8,4 km/h (2 Bft)
19.09.2014 17:44 24,8 C 22,2 C 73 % 1011,1 hPa 0,0 l/m 2 min 0 min 181 W/m 8,4 km/h (2 Bft)
19.09.2014 17:46 24,7 C 22,2 C 74 % 1011,0 hPa 0,0 l/m 2 min 0 min 169 W/m 8,4 km/h (2 Bft)
19.09.2014 17:48 24,6 C 21,7 C 74 % 1011,0 hPa 0,0 l/m 2 min 0 min 172 W/m 4,2 km/h (1 Bft)
19.09.2014 17:50 24,6 C 21,7 C 73 % 1011,0 hPa 0,0 l/m 2 min 0 min 155 W/m 6,3 km/h (2 Bft)
19.09.2014 17:52 24,5 C 21,7 C 75 % 1011,0 hPa 0,0 l/m 0 min 0 min 127 W/m 6,3 km/h (2 Bft)
19.09.2014 17:54 24,4 C 21,7 C 76 % 1011,0 hPa 0,0 l/m 0 min 0 min 110 W/m 4,2 km/h (1 Bft)
19.09.2014 17:56 24,3 C 21,7 C 75 % 1011,1 hPa 0,0 l/m 0 min 0 min 106 W/m 6,3 km/h (2 Bft)
19.09.2014 17:58 24,2 C 21,7 C 76 % 1011,1 hPa 0,0 l/m 0 min 0 min 102 W/m 6,3 km/h (2 Bft)
19.09.2014 18:00 24,2 C 21,7 C 75 % 1011,1 hPa 0,0 l/m 0 min 0 min 110 W/m 8,4 km/h (2 Bft)
19.09.2014 18:02 24,1 C 21,7 C 76 % 1011,0 hPa 0,0 l/m 0 min 0 min 90 W/m 8,4 km/h (2 Bft)
19.09.2014 18:05 23,9 C 21,1 C 77 % 1011,0 hPa 0,0 l/m 0 min 0 min 90 W/m 6,3 km/h (2 Bft)
19.09.2014 18:06 23,9 C 21,1 C 77 % 1011,1 hPa 0,0 l/m 0 min 0 min 91 W/m 4,2 km/h (1 Bft)
19.09.2014 18:08 23,8 C 21,1 C 78 % 1011,0 hPa 0,0 l/m 0 min 0 min 90 W/m 4,2 km/h (1 Bft)
19.09.2014 18:10 23,8 C 21,1 C 78 % 1011,1 hPa 0,0 l/m 0 min 0 min 91 W/m 6,3 km/h (2 Bft)
19.09.2014 18:12 23,7 C 21,1 C 78 % 1011,1 hPa 0,0 l/m 0 min 0 min 106 W/m 4,2 km/h (1 Bft)
19.09.2014 18:14 23,7 C 21,1 C 78 % 1011,1 hPa 0,0 l/m 2 min 0 min 119 W/m 4,2 km/h (1 Bft)
19.09.2014 18:16 23,7 C 21,1 C 78 % 1011,0 hPa 0,0 l/m 2 min 0 min 120 W/m 4,2 km/h (1 Bft)
19.09.2014 18:18 23,7 C 21,1 C 79 % 1011,0 hPa 0,0 l/m 2 min 0 min 125 W/m 4,2 km/h (1 Bft)
19.09.2014 18:20 23,7 C 21,1 C 79 % 1011,0 hPa 0,0 l/m 2 min 0 min 150 W/m 6,3 km/h (2 Bft)
19.09.2014 18:22 23,7 C 21,1 C 80 % 1011,0 hPa 0,0 l/m 2 min 0 min 154 W/m 4,2 km/h (1 Bft)
19.09.2014 18:24 23,7 C 21,1 C 79 % 1011,1 hPa 0,0 l/m 2 min 0 min 135 W/m 4,2 km/h (1 Bft)
19.09.2014 18:26 23,7 C 21,1 C 80 % 1011,0 hPa 0,0 l/m 2 min 0 min 127 W/m 6,3 km/h (2 Bft)
19.09.2014 18:28 23,7 C 21,1 C 79 % 1011,0 hPa 0,0 l/m 2 min 0 min 119 W/m 4,2 km/h (1 Bft)
19.09.2014 18:30 23,7 C 21,1 C 79 % 1011,0 hPa 0,0 l/m 2 min 0 min 114 W/m 4,2 km/h (1 Bft)
19.09.2014 18:32 23,7 C 21,1 C 79 % 1011,0 hPa 0,0 l/m 2 min 0 min 104 W/m 8,4 km/h (2 Bft)
19.09.2014 18:34 23,7 C 21,1 C 78 % 1011,0 hPa 0,0 l/m 2 min 0 min 91 W/m 6,3 km/h (2 Bft)
19.09.2014 18:36 23,7 C 21,1 C 79 % 1011,0 hPa 0,0 l/m 2 min 0 min 81 W/m 8,4 km/h (2 Bft)
19.09.2014 18:38 23,6 C 21,1 C 79 % 1011,1 hPa 0,0 l/m 0 min 0 min 73 W/m 8,4 km/h (2 Bft)
19.09.2014 18:40 23,6 C 21,1 C 79 % 1011,1 hPa 0,0 l/m 0 min 0 min 68 W/m 8,4 km/h (2 Bft)
19.09.2014 18:42 23,5 C 21,1 C 80 % 1011,1 hPa 0,0 l/m 0 min 0 min 63 W/m 8,4 km/h (2 Bft)
19.09.2014 18:44 23,4 C 21,1 C 80 % 1011,0 hPa 0,0 l/m 0 min 0 min 59 W/m 8,4 km/h (2 Bft)
19.09.2014 18:46 23,3 C 21,1 C 80 % 1011,0 hPa 0,0 l/m 0 min 0 min 56 W/m 6,3 km/h (2 Bft)
19.09.2014 18:48 23,3 C 21,1 C 81 % 1011,1 hPa 0,0 l/m 0 min 0 min 54 W/m 6,3 km/h (2 Bft)
19.09.2014 18:50 23,2 C 21,1 C 81 % 1011,1 hPa 0,0 l/m 0 min 0 min 53 W/m 6,3 km/h (2 Bft)
19.09.2014 18:52 23,1 C 21,1 C 81 % 1011,0 hPa 0,0 l/m 0 min 0 min 51 W/m 6,3 km/h (2 Bft)
19.09.2014 18:54 23,1 C 21,1 C 82 % 1011,1 hPa 0,0 l/m 0 min 0 min 51 W/m 4,2 km/h (1 Bft)
19.09.2014 18:56 22,9 C 21,1 C 82 % 1011,1 hPa 0,0 l/m 0 min 0 min 51 W/m 4,2 km/h (1 Bft)
19.09.2014 18:58 22,9 C 21,1 C 83 % 1011,1 hPa 0,0 l/m 2 min 0 min 50 W/m 6,3 km/h (2 Bft)
19.09.2014 19:00 22,8 C 20,6 C 83 % 1011,1 hPa 0,0 l/m 0 min 0 min 46 W/m 6,3 km/h (2 Bft)
19.09.2014 19:02 22,7 C 20,6 C 84 % 1011,1 hPa 0,0 l/m 0 min 0 min 43 W/m 8,4 km/h (2 Bft)
19.09.2014 19:04 22,6 C 20,6 C 84 % 1011,1 hPa 0,0 l/m 2 min 0 min 42 W/m 6,3 km/h (2 Bft)
19.09.2014 19:06 22,6 C 20,6 C 84 % 1011,0 hPa 0,0 l/m 2 min 0 min 40 W/m 6,3 km/h (2 Bft)
19.09.2014 19:08 22,5 C 20,6 C 84 % 1011,1 hPa 0,0 l/m 2 min 0 min 37 W/m 6,3 km/h (2 Bft)
19.09.2014 19:10 22,4 C 20,6 C 84 % 1011,1 hPa 0,0 l/m 0 min 0 min 32 W/m 8,4 km/h (2 Bft)
19.09.2014 19:12 22,4 C 20,6 C 85 % 1011,1 hPa 0,0 l/m 0 min 0 min 27 W/m 6,3 km/h (2 Bft)
19.09.2014 19:14 22,3 C 20,0 C 85 % 1011,1 hPa 0,0 l/m 0 min 0 min 25 W/m 6,3 km/h (2 Bft)
19.09.2014 19:16 22,3 C 20,0 C 85 % 1011,1 hPa 0,0 l/m 0 min 0 min 22 W/m 6,3 km/h (2 Bft)
19.09.2014 19:18 22,2 C 20,0 C 85 % 1011,2 hPa 0,0 l/m 0 min 0 min 20 W/m 4,2 km/h (1 Bft)
19.09.2014 19:20 22,1 C 20,0 C 85 % 1011,2 hPa 0,0 l/m 0 min 0 min 18 W/m 6,3 km/h (2 Bft)
19.09.2014 19:22 22,1 C 19,4 C 86 % 1011,2 hPa 0,0 l/m 2 min 0 min 17 W/m 4,2 km/h (1 Bft)
19.09.2014 19:24 22,0 C 19,4 C 86 % 1011,2 hPa 0,0 l/m 2 min 0 min 14 W/m 4,2 km/h (1 Bft)
19.09.2014 19:26 21,9 C 19,4 C 86 % 1011,2 hPa 0,0 l/m 0 min 0 min 12 W/m 4,2 km/h (1 Bft)
19.09.2014 19:28 21,9 C 19,4 C 86 % 1011,2 hPa 0,0 l/m 0 min 0 min 11 W/m 6,3 km/h (2 Bft)
19.09.2014 19:30 21,8 C 19,4 C 86 % 1011,2 hPa 0,0 l/m 0 min 0 min 10 W/m 6,3 km/h (2 Bft)
19.09.2014 19:32 21,8 C 18,9 C 87 % 1011,2 hPa 0,0 l/m 0 min 0 min 9 W/m 6,3 km/h (2 Bft)
19.09.2014 19:34 21,7 C 18,9 C 87 % 1011,3 hPa 0,0 l/m 0 min 0 min 7 W/m 4,2 km/h (1 Bft)
19.09.2014 19:36 21,6 C 18,9 C 88 % 1011,3 hPa 0,0 l/m 0 min 0 min 5 W/m 4,2 km/h (1 Bft)
19.09.2014 19:38 21,6 C 18,9 C 88 % 1011,3 hPa 0,0 l/m 0 min 0 min 5 W/m 4,2 km/h (1 Bft)
19.09.2014 19:40 21,4 C 18,9 C 88 % 1011,3 hPa 0,0 l/m 0 min 0 min 1 W/m 4,2 km/h (1 Bft)
19.09.2014 19:42 21,4 C 18,9 C 88 % 1011,3 hPa 0,0 l/m 0 min 0 min 0 W/m 2,1 km/h (1 Bft)
19.09.2014 19:44 21,3 C 18,3 C 88 % 1011,3 hPa 0,0 l/m 0 min 0 min 0 W/m 4,2 km/h (1 Bft)
19.09.2014 19:46 21,3 C 18,3 C 89 % 1011,3 hPa 0,0 l/m 0 min 0 min 0 W/m 2,1 km/h (1 Bft)
19.09.2014 19:48 21,2 C 18,3 C 89 % 1011,3 hPa 0,0 l/m 0 min 0 min 0 W/m 2,1 km/h (1 Bft)
19.09.2014 19:50 21,1 C 18,3 C 89 % 1011,3 hPa 0,0 l/m 0 min 0 min 0 W/m 2,1 km/h (1 Bft)
19.09.2014 19:52 21,0 C 18,3 C 89 % 1011,3 hPa 0,0 l/m 0 min 0 min 0 W/m 4,2 km/h (1 Bft)
19.09.2014 19:54 21,0 C 18,3 C 90 % 1011,3 hPa 0,0 l/m 0 min 0 min 0 W/m 6,3 km/h (2 Bft)
19.09.2014 19:56 20,9 C 18,3 C 90 % 1011,3 hPa 0,0 l/m 0 min 0 min 0 W/m 6,3 km/h (2 Bft)
19.09.2014 19:58 20,9 C 18,9 C 90 % 1011,3 hPa 0,0 l/m 0 min 0 min 0 W/m 8,4 km/h (2 Bft)
19.09.2014 20:00 20,9 C 18,9 C 90 % 1011,3 hPa 0,0 l/m 0 min 0 min 0 W/m 6,3 km/h (2 Bft)
19.09.2014 20:02 20,8 C 18,9 C 90 % 1011,3 hPa 0,0 l/m 0 min 0 min 0 W/m 6,3 km/h (2 Bft)
19.09.2014 20:04 20,8 C 18,3 C 90 % 1011,3 hPa 0,0 l/m 0 min 0 min 0 W/m 4,2 km/h (1 Bft)
19.09.2014 20:06 20,8 C 18,3 C 90 % 1011,4 hPa 0,0 l/m 0 min 0 min 0 W/m 4,2 km/h (1 Bft)
19.09.2014 20:08 20,7 C 18,3 C 90 % 1011,3 hPa 0,0 l/m 0 min 0 min 0 W/m 4,2 km/h (1 Bft)
19.09.2014 20:10 20,7 C 18,3 C 90 % 1011,3 hPa 0,0 l/m 0 min 0 min 0 W/m 4,2 km/h (1 Bft)
19.09.2014 20:12 20,7 C 18,3 C 90 % 1011,3 hPa 0,0 l/m 0 min 0 min 0 W/m 2,1 km/h (1 Bft)
19.09.2014 20:14 20,6 C 18,3 C 91 % 1011,4 hPa 0,0 l/m 0 min 0 min 0 W/m 4,2 km/h (1 Bft)
19.09.2014 20:16 20,5 C 17,8 C 91 % 1011,4 hPa 0,0 l/m 0 min 0 min 0 W/m 4,2 km/h (1 Bft)
19.09.2014 20:18 20,4 C 17,8 C 91 % 1011,4 hPa 0,0 l/m 0 min 0 min 0 W/m 4,2 km/h (1 Bft)
19.09.2014 20:20 20,3 C 17,8 C 91 % 1011,5 hPa 0,0 l/m 0 min 0 min 0 W/m 2,1 km/h (1 Bft)
19.09.2014 20:22 20,3 C 17,8 C 91 % 1011,5 hPa 0,0 l/m 0 min 0 min 0 W/m 2,1 km/h (1 Bft)
19.09.2014 20:24 20,2 C 17,8 C 91 % 1011,6 hPa 0,0 l/m 0 min 0 min 0 W/m 2,1 km/h (1 Bft)
19.09.2014 20:26 20,2 C 17,8 C 92 % 1011,6 hPa 0,0 l/m 0 min 0 min 0 W/m 2,1 km/h (1 Bft)
19.09.2014 20:28 20,1 C 17,8 C 92 % 1011,7 hPa 0,0 l/m 0 min 0 min 0 W/m 4,2 km/h (1 Bft)
19.09.2014 20:30 20,1 C 17,8 C 92 % 1011,8 hPa 0,0 l/m 0 min 0 min 0 W/m 4,2 km/h (1 Bft)
19.09.2014 20:32 20,0 C 17,8 C 92 % 1011,8 hPa 0,0 l/m 0 min 0 min 0 W/m 2,1 km/h (1 Bft)
19.09.2014 20:34 19,9 C 17,8 C 92 % 1011,9 hPa 0,0 l/m 0 min 0 min 0 W/m 2,1 km/h (1 Bft)
19.09.2014 20:36 19,9 C 17,2 C 93 % 1011,9 hPa 0,0 l/m 0 min 0 min 0 W/m 2,1 km/h (1 Bft)
19.09.2014 20:38 19,8 C 17,2 C 93 % 1012,0 hPa 0,0 l/m 0 min 0 min 0 W/m 2,1 km/h (1 Bft)
19.09.2014 20:40 19,8 C 17,2 C 93 % 1012,0 hPa 0,0 l/m 0 min 0 min 0 W/m 2,1 km/h (1 Bft)
19.09.2014 20:42 19,7 C 17,2 C 93 % 1012,0 hPa 0,0 l/m 0 min 0 min 0 W/m 4,2 km/h (1 Bft)
19.09.2014 20:44 19,7 C 17,2 C 93 % 1012,0 hPa 0,0 l/m 0 min 0 min 0 W/m 2,1 km/h (1 Bft)
19.09.2014 20:46 19,6 C 17,2 C 93 % 1012,0 hPa 0,0 l/m 0 min 0 min 0 W/m 2,1 km/h (1 Bft)
19.09.2014 20:48 19,6 C 17,2 C 93 % 1012,1 hPa 0,0 l/m 0 min 0 min 0 W/m 2,1 km/h (1 Bft)
19.09.2014 20:50 19,6 C 17,2 C 94 % 1012,1 hPa 0,0 l/m 0 min 0 min 0 W/m 2,1 km/h (1 Bft)
19.09.2014 20:52 19,5 C 17,2 C 94 % 1012,1 hPa 0,0 l/m 0 min 0 min 0 W/m 4,2 km/h (1 Bft)
19.09.2014 20:54 19,4 C 17,2 C 94 % 1012,1 hPa 0,0 l/m 0 min 0 min 0 W/m 4,2 km/h (1 Bft)
19.09.2014 20:56 19,4 C 17,2 C 94 % 1012,1 hPa 0,0 l/m 0 min 0 min 0 W/m 2,1 km/h (1 Bft)
19.09.2014 20:58 19,3 C 17,2 C 94 % 1012,1 hPa 0,0 l/m 0 min 0 min 0 W/m 2,1 km/h (1 Bft)
19.09.2014 21:00 19,3 C 17,2 C 94 % 1012,1 hPa 0,0 l/m 0 min 0 min 0 W/m 2,1 km/h (1 Bft)
19.09.2014 21:02 19,3 C 17,2 C 94 % 1012,2 hPa 0,0 l/m 0 min 0 min 0 W/m 4,2 km/h (1 Bft)
19.09.2014 21:04 19,3 C 17,2 C 94 % 1012,2 hPa 0,0 l/m 0 min 0 min 0 W/m 2,1 km/h (1 Bft)
19.09.2014 21:06 19,3 C 17,2 C 94 % 1012,2 hPa 0,0 l/m 0 min 0 min 0 W/m 2,1 km/h (1 Bft)
19.09.2014 21:08 19,3 C 17,2 C 94 % 1012,3 hPa 0,0 l/m 0 min 0 min 0 W/m 2,1 km/h (1 Bft)
19.09.2014 21:10 19,3 C 17,2 C 94 % 1012,3 hPa 0,0 l/m 0 min 0 min 0 W/m 4,2 km/h (1 Bft)
19.09.2014 21:12 19,3 C 16,7 C 94 % 1012,3 hPa 0,0 l/m 0 min 0 min 0 W/m 2,1 km/h (1 Bft)
19.09.2014 21:14 19,3 C 16,7 C 94 % 1012,4 hPa 0,0 l/m 0 min 0 min 0 W/m 2,1 km/h (1 Bft)
19.09.2014 21:16 19,3 C 16,7 C 94 % 1012,4 hPa 0,0 l/m 0 min 0 min 0 W/m 0,0 km/h (0 Bft)
19.09.2014 21:18 19,2 C 16,7 C 94 % 1012,4 hPa 0,0 l/m 0 min 0 min 0 W/m 0,0 km/h (0 Bft)
19.09.2014 21:20 19,2 C 16,7 C 94 % 1012,4 hPa 0,0 l/m 0 min 0 min 0 W/m 0,0 km/h (0 Bft)
19.09.2014 21:22 19,2 C 16,7 C 94 % 1012,5 hPa 0,0 l/m 0 min 0 min 0 W/m 2,1 km/h (1 Bft)
19.09.2014 21:24 19,2 C 16,7 C 94 % 1012,5 hPa 0,0 l/m 0 min 0 min 0 W/m 0,0 km/h (0 Bft)
19.09.2014 21:26 19,2 C 16,7 C 94 % 1012,5 hPa 0,0 l/m 0 min 0 min 0 W/m 2,1 km/h (1 Bft)
19.09.2014 21:28 19,2 C 16,7 C 94 % 1012,5 hPa 0,0 l/m 0 min 0 min 0 W/m 2,1 km/h (1 Bft)
19.09.2014 21:30 19,1 C 16,7 C 94 % 1012,5 hPa 0,0 l/m 0 min 0 min 0 W/m 0,0 km/h (0 Bft)
19.09.2014 21:32 19,1 C 16,7 C 94 % 1012,5 hPa 0,0 l/m 0 min 0 min 0 W/m 4,2 km/h (1 Bft)
19.09.2014 21:34 19,1 C 16,7 C 94 % 1012,5 hPa 0,0 l/m 0 min 0 min 0 W/m 4,2 km/h (1 Bft)
19.09.2014 21:36 19,1 C 16,7 C 94 % 1012,4 hPa 0,0 l/m 0 min 0 min 0 W/m 4,2 km/h (1 Bft)
19.09.2014 21:38 19,0 C 16,7 C 94 % 1012,4 hPa 0,0 l/m 0 min 0 min 0 W/m 2,1 km/h (1 Bft)
19.09.2014 21:40 19,0 C 16,7 C 94 % 1012,5 hPa 0,0 l/m 0 min 0 min 0 W/m 0,0 km/h (0 Bft)
19.09.2014 21:42 19,0 C 16,7 C 94 % 1012,5 hPa 0,0 l/m 0 min 0 min 0 W/m 2,1 km/h (1 Bft)
19.09.2014 21:44 18,9 C 16,7 C 94 % 1012,4 hPa 0,0 l/m 0 min 0 min 0 W/m 2,1 km/h (1 Bft)
19.09.2014 21:46 18,9 C 16,7 C 94 % 1012,4 hPa 0,0 l/m 0 min 0 min 0 W/m 2,1 km/h (1 Bft)
19.09.2014 21:48 18,9 C 16,7 C 94 % 1012,4 hPa 0,0 l/m 0 min 0 min 0 W/m 2,1 km/h (1 Bft)
19.09.2014 21:49 18,9 C 16,7 C 94 % 1012,4 hPa 0,0 l/m 0 min 0 min 0 W/m 2,1 km/h (1 Bft)
19.09.2014 21:52 18,9 C 16,7 C 94 % 1012,4 hPa 0,0 l/m 0 min 0 min 0 W/m 2,1 km/h (1 Bft)
19.09.2014 21:54 18,8 C 16,7 C 94 % 1012,4 hPa 0,0 l/m 0 min 0 min 0 W/m 2,1 km/h (1 Bft)
19.09.2014 21:56 18,8 C 16,7 C 94 % 1012,4 hPa 0,0 l/m 0 min 0 min 0 W/m 2,1 km/h (1 Bft)
19.09.2014 21:58 18,8 C 16,7 C 94 % 1012,4 hPa 0,0 l/m 0 min 0 min 0 W/m 0,0 km/h (0 Bft)
19.09.2014 21:59 18,8 C 16,7 C 94 % 1012,4 hPa 0,0 l/m 0 min 0 min 0 W/m 0,0 km/h (0 Bft)
19.09.2014 22:00 18,7 C 16,7 C 94 % 1012,4 hPa 0,0 l/m 0 min 0 min 0 W/m 0,0 km/h (0 Bft)
19.09.2014 22:01 18,7 C 16,1 C 94 % 1012,4 hPa 0,0 l/m 0 min 0 min 0 W/m 0,0 km/h (0 Bft)
19.09.2014 22:02 18,7 C 16,1 C 94 % 1012,4 hPa 0,0 l/m 0 min 0 min 0 W/m 2,1 km/h (1 Bft)
19.09.2014 22:06 18,7 C 16,1 C 94 % 1012,5 hPa 0,0 l/m 0 min 0 min 0 W/m 0,0 km/h (0 Bft)
19.09.2014 22:07 18,7 C 16,1 C 94 % 1012,4 hPa 0,0 l/m 0 min 0 min 0 W/m 2,1 km/h (1 Bft)
19.09.2014 22:08 18,7 C 16,1 C 94 % 1012,4 hPa 0,0 l/m 0 min 0 min 0 W/m 2,1 km/h (1 Bft)
19.09.2014 22:09 18,6 C 16,1 C 94 % 1012,5 hPa 0,0 l/m 0 min 0 min 0 W/m 4,2 km/h (1 Bft)
19.09.2014 22:10 18,6 C 16,1 C 94 % 1012,4 hPa 0,0 l/m 0 min 0 min 0 W/m 2,1 km/h (1 Bft)
19.09.2014 22:12 18,6 C 16,1 C 94 % 1012,5 hPa 0,0 l/m 0 min 0 min 0 W/m 2,1 km/h (1 Bft)
19.09.2014 22:14 18,6 C 16,1 C 94 % 1012,5 hPa 0,0 l/m 0 min 0 min 0 W/m 2,1 km/h (1 Bft)
19.09.2014 22:15 18,5 C 16,1 C 94 % 1012,5 hPa 0,0 l/m 0 min 0 min 0 W/m 2,1 km/h (1 Bft)
19.09.2014 22:16 18,5 C 16,1 C 94 % 1012,5 hPa 0,0 l/m 0 min 0 min 0 W/m 2,1 km/h (1 Bft)
19.09.2014 22:18 18,5 C 16,1 C 94 % 1012,5 hPa 0,0 l/m 0 min 0 min 0 W/m 0,0 km/h (0 Bft)
19.09.2014 22:20 18,4 C 16,1 C 94 % 1012,5 hPa 0,0 l/m 0 min 0 min 0 W/m 2,1 km/h (1 Bft)
19.09.2014 22:22 18,4 C 16,1 C 94 % 1012,6 hPa 0,0 l/m 0 min 0 min 0 W/m 2,1 km/h (1 Bft)
19.09.2014 22:24 18,4 C 16,1 C 94 % 1012,5 hPa 0,0 l/m 0 min 0 min 0 W/m 0,0 km/h (0 Bft)
19.09.2014 22:26 18,4 C 16,1 C 94 % 1012,5 hPa 0,0 l/m 0 min 0 min 0 W/m 2,1 km/h (1 Bft)
19.09.2014 22:28 18,3 C 16,1 C 94 % 1012,5 hPa 0,0 l/m 0 min 0 min 0 W/m 2,1 km/h (1 Bft)
19.09.2014 22:30 18,3 C 16,1 C 94 % 1012,6 hPa 0,0 l/m 0 min 0 min 0 W/m 2,1 km/h (1 Bft)
19.09.2014 22:32 18,3 C 16,1 C 94 % 1012,5 hPa 0,0 l/m 0 min 0 min 0 W/m 2,1 km/h (1 Bft)
19.09.2014 22:33 18,3 C 16,1 C 94 % 1012,6 hPa 0,0 l/m 0 min 0 min 0 W/m 2,1 km/h (1 Bft)
19.09.2014 22:34 18,3 C 16,1 C 94 % 1012,5 hPa 0,0 l/m 0 min 0 min 0 W/m 4,2 km/h (1 Bft)
19.09.2014 22:35 18,3 C 16,1 C 94 % 1012,6 hPa 0,0 l/m 0 min 0 min 0 W/m 2,1 km/h (1 Bft)
19.09.2014 22:36 18,2 C 16,1 C 94 % 1012,6 hPa 0,0 l/m 0 min 0 min 0 W/m 2,1 km/h (1 Bft)
19.09.2014 22:37 18,2 C 16,1 C 94 % 1012,6 hPa 0,0 l/m 0 min 0 min 0 W/m 2,1 km/h (1 Bft)
19.09.2014 22:38 18,2 C 16,1 C 94 % 1012,6 hPa 0,0 l/m 0 min 0 min 0 W/m 2,1 km/h (1 Bft)
19.09.2014 22:39 18,2 C 16,1 C 94 % 1012,6 hPa 0,0 l/m 0 min 0 min 0 W/m 0,0 km/h (0 Bft)
19.09.2014 22:40 18,2 C 16,1 C 94 % 1012,6 hPa 0,0 l/m 0 min 0 min 0 W/m 0,0 km/h (0 Bft)
19.09.2014 22:41 18,2 C 16,1 C 94 % 1012,6 hPa 0,0 l/m 0 min 0 min 0 W/m 0,0 km/h (0 Bft)
19.09.2014 22:42 18,2 C 16,1 C 94 % 1012,5 hPa 0,0 l/m 0 min 0 min 0 W/m 0,0 km/h (0 Bft)
19.09.2014 22:43 18,2 C 16,1 C 94 % 1012,5 hPa 0,0 l/m 0 min 0 min 0 W/m 0,0 km/h (0 Bft)
19.09.2014 22:44 18,1 C 16,1 C 94 % 1012,6 hPa 0,0 l/m 0 min 0 min 0 W/m 0,0 km/h (0 Bft)
19.09.2014 22:46 18,1 C 16,1 C 94 % 1012,6 hPa 0,0 l/m 0 min 0 min 0 W/m 0,0 km/h (0 Bft)
19.09.2014 22:48 18,1 C 16,1 C 94 % 1012,5 hPa 0,0 l/m 0 min 0 min 0 W/m 0,0 km/h (0 Bft)
19.09.2014 22:50 18,1 C 16,1 C 94 % 1012,6 hPa 0,0 l/m 0 min 0 min 0 W/m 0,0 km/h (0 Bft)
19.09.2014 22:52 18,1 C 15,6 C 94 % 1012,6 hPa 0,0 l/m 0 min 0 min 0 W/m 0,0 km/h (0 Bft)
19.09.2014 22:54 18,0 C 15,6 C 94 % 1012,6 hPa 0,0 l/m 0 min 0 min 0 W/m 0,0 km/h (0 Bft)
19.09.2014 22:55 18,0 C 15,6 C 94 % 1012,6 hPa 0,0 l/m 0 min 0 min 0 W/m 0,0 km/h (0 Bft)
19.09.2014 22:56 18,0 C 15,6 C 94 % 1012,6 hPa 0,0 l/m 0 min 0 min 0 W/m 0,0 km/h (0 Bft)
19.09.2014 22:58 17,9 C 15,6 C 94 % 1012,6 hPa 0,0 l/m 0 min 0 min 0 W/m 0,0 km/h (0 Bft)
19.09.2014 23:00 17,9 C 15,6 C 94 % 1012,6 hPa 0,0 l/m 0 min 0 min 0 W/m 2,1 km/h (1 Bft)
19.09.2014 23:02 17,9 C 15,6 C 94 % 1012,6 hPa 0,0 l/m 0 min 0 min 0 W/m 2,1 km/h (1 Bft)
19.09.2014 23:04 17,9 C 15,6 C 94 % 1012,6 hPa 0,0 l/m 0 min 0 min 0 W/m 2,1 km/h (1 Bft)
19.09.2014 23:06 17,9 C 15,6 C 94 % 1012,6 hPa 0,0 l/m 0 min 0 min 0 W/m 0,0 km/h (0 Bft)
19.09.2014 23:08 17,8 C 15,6 C 94 % 1012,6 hPa 0,0 l/m 0 min 0 min 0 W/m 0,0 km/h (0 Bft)
19.09.2014 23:10 17,8 C 15,6 C 94 % 1012,6 hPa 0,0 l/m 0 min 0 min 0 W/m 0,0 km/h (0 Bft)
19.09.2014 23:12 17,8 C 15,6 C 94 % 1012,6 hPa 0,0 l/m 0 min 0 min 0 W/m 0,0 km/h (0 Bft)
19.09.2014 23:13 17,8 C 15,6 C 94 % 1012,6 hPa 0,0 l/m 0 min 0 min 0 W/m 0,0 km/h (0 Bft)
19.09.2014 23:14 17,7 C 15,6 C 94 % 1012,6 hPa 0,0 l/m 0 min 0 min 0 W/m 0,0 km/h (0 Bft)
19.09.2014 23:15 17,7 C 15,6 C 94 % 1012,6 hPa 0,0 l/m 0 min 0 min 0 W/m 0,0 km/h (0 Bft)
19.09.2014 23:16 17,7 C 15,6 C 94 % 1012,6 hPa 0,0 l/m 0 min 0 min 0 W/m 0,0 km/h (0 Bft)
19.09.2014 23:17 17,7 C 15,6 C 94 % 1012,6 hPa 0,0 l/m 0 min 0 min 0 W/m 0,0 km/h (0 Bft)
19.09.2014 23:18 17,7 C 15,6 C 94 % 1012,6 hPa 0,0 l/m 0 min 0 min 0 W/m 0,0 km/h (0 Bft)
19.09.2014 23:19 17,7 C 15,6 C 94 % 1012,6 hPa 0,0 l/m 0 min 0 min 0 W/m 0,0 km/h (0 Bft)
19.09.2014 23:20 17,7 C 15,6 C 94 % 1012,6 hPa 0,0 l/m 0 min 0 min 0 W/m 0,0 km/h (0 Bft)
19.09.2014 23:21 17,7 C 15,6 C 94 % 1012,6 hPa 0,0 l/m 0 min 0 min 0 W/m 2,1 km/h (1 Bft)
19.09.2014 23:22 17,6 C 15,6 C 94 % 1012,6 hPa 0,0 l/m 0 min 0 min 0 W/m 2,1 km/h (1 Bft)
19.09.2014 23:23 17,6 C 15,6 C 94 % 1012,6 hPa 0,0 l/m 0 min 0 min 0 W/m 2,1 km/h (1 Bft)
19.09.2014 23:24 17,6 C 15,6 C 94 % 1012,6 hPa 0,0 l/m 0 min 0 min 0 W/m 2,1 km/h (1 Bft)
19.09.2014 23:25 17,6 C 15,6 C 94 % 1012,6 hPa 0,0 l/m 0 min 0 min 0 W/m 0,0 km/h (0 Bft)
19.09.2014 23:26 17,6 C 15,6 C 94 % 1012,6 hPa 0,0 l/m 0 min 0 min 0 W/m 0,0 km/h (0 Bft)
19.09.2014 23:27 17,6 C 15,6 C 94 % 1012,6 hPa 0,0 l/m 0 min 0 min 0 W/m 0,0 km/h (0 Bft)
19.09.2014 23:28 17,6 C 15,6 C 94 % 1012,6 hPa 0,0 l/m 0 min 0 min 0 W/m 0,0 km/h (0 Bft)
19.09.2014 23:29 17,6 C 15,6 C 94 % 1012,6 hPa 0,0 l/m 0 min 0 min 0 W/m 0,0 km/h (0 Bft)
19.09.2014 23:30 17,6 C 15,6 C 94 % 1012,6 hPa 0,0 l/m 0 min 0 min 0 W/m 0,0 km/h (0 Bft)
19.09.2014 23:31 17,5 C 15,6 C 94 % 1012,6 hPa 0,0 l/m 0 min 0 min 0 W/m 0,0 km/h (0 Bft)
19.09.2014 23:32 17,5 C 15,6 C 94 % 1012,6 hPa 0,0 l/m 0 min 0 min 0 W/m 0,0 km/h (0 Bft)
19.09.2014 23:33 17,5 C 15,6 C 94 % 1012,6 hPa 0,0 l/m 0 min 0 min 0 W/m 0,0 km/h (0 Bft)
19.09.2014 23:34 17,5 C 15,6 C 94 % 1012,6 hPa 0,0 l/m 0 min 0 min 0 W/m 2,1 km/h (1 Bft)
19.09.2014 23:35 17,5 C 15,6 C 94 % 1012,7 hPa 0,0 l/m 0 min 0 min 0 W/m 2,1 km/h (1 Bft)
19.09.2014 23:36 17,4 C 15,6 C 94 % 1012,6 hPa 0,0 l/m 0 min 0 min 0 W/m 2,1 km/h (1 Bft)
19.09.2014 23:37 17,4 C 15,6 C 94 % 1012,7 hPa 0,0 l/m 0 min 0 min 0 W/m 2,1 km/h (1 Bft)
19.09.2014 23:38 17,4 C 15,6 C 94 % 1012,6 hPa 0,0 l/m 0 min 0 min 0 W/m 2,1 km/h (1 Bft)
19.09.2014 23:39 17,4 C 15,6 C 94 % 1012,6 hPa 0,0 l/m 0 min 0 min 0 W/m 2,1 km/h (1 Bft)
19.09.2014 23:40 17,4 C 15,6 C 94 % 1012,6 hPa 0,0 l/m 0 min 0 min 0 W/m 2,1 km/h (1 Bft)
19.09.2014 23:41 17,4 C 15,6 C 94 % 1012,6 hPa 0,0 l/m 0 min 0 min 0 W/m 2,1 km/h (1 Bft)
19.09.2014 23:42 17,4 C 15,6 C 94 % 1012,6 hPa 0,0 l/m 0 min 0 min 0 W/m 0,0 km/h (0 Bft)
19.09.2014 23:43 17,4 C 15,6 C 94 % 1012,7 hPa 0,0 l/m 0 min 0 min 0 W/m 0,0 km/h (0 Bft)
19.09.2014 23:44 17,4 C 15,6 C 94 % 1012,7 hPa 0,0 l/m 0 min 0 min 0 W/m 0,0 km/h (0 Bft)
19.09.2014 23:45 17,4 C 15,6 C 94 % 1012,7 hPa 0,0 l/m 0 min 0 min 0 W/m 0,0 km/h (0 Bft)
19.09.2014 23:46 17,3 C 15,6 C 94 % 1012,6 hPa 0,0 l/m 0 min 0 min 0 W/m 0,0 km/h (0 Bft)
19.09.2014 23:47 17,3 C 15,6 C 94 % 1012,6 hPa 0,0 l/m 0 min 0 min 0 W/m 2,1 km/h (1 Bft)
19.09.2014 23:48 17,3 C 15,0 C 94 % 1012,6 hPa 0,0 l/m 0 min 0 min 0 W/m 2,1 km/h (1 Bft)
19.09.2014 23:49 17,3 C 15,0 C 94 % 1012,6 hPa 0,0 l/m 0 min 0 min 0 W/m 2,1 km/h (1 Bft)
19.09.2014 23:50 17,3 C 15,0 C 94 % 1012,6 hPa 0,0 l/m 0 min 0 min 0 W/m 2,1 km/h (1 Bft)
19.09.2014 23:51 17,3 C 15,0 C 94 % 1012,6 hPa 0,0 l/m 0 min 0 min 0 W/m 2,1 km/h (1 Bft)
19.09.2014 23:52 17,3 C 15,0 C 94 % 1012,6 hPa 0,0 l/m 0 min 0 min 0 W/m 2,1 km/h (1 Bft)
19.09.2014 23:53 17,3 C 15,0 C 94 % 1012,5 hPa 0,0 l/m 0 min 0 min 0 W/m 0,0 km/h (0 Bft)
19.09.2014 23:54 17,3 C 15,0 C 94 % 1012,5 hPa 0,0 l/m 0 min 0 min 0 W/m 0,0 km/h (0 Bft)
19.09.2014 23:56 17,3 C 15,0 C 94 % 1012,5 hPa 0,0 l/m 0 min 0 min 0 W/m 0,0 km/h (0 Bft)
19.09.2014 23:58 17,2 C 15,0 C 94 % 1012,5 hPa 0,0 l/m 0 min 0 min 0 W/m 0,0 km/h (0 Bft)
_ Min-Zeit 07:44 07:14 15:24 04:36 - - - - 07:06
Minimum _ 15,1 C 13,3 C 70 % 1009,4 hPa - - - - 0,0 km/h (0 Bft)
_ Max-Zeit 15:42 14:42 09:32 23:35 00:05 07:28 00:00 13:12 00:46
Maximum _ 26,2 C 23,3 C 100 % 1012,7 hPa 0,6 l/m 2 min 2 min 852 W/m 20,9 km/h
O (4 Bft)
Durchschnitt _ 19,6 C 17,7 C 91 % 1010,8 hPa #1,6 l/m #9:22 h #37 min. 304 W/m 6,6 km/h (2 Bft)
© 2014 W. Hausmann